Observation data for Adrian on 12/13/2018      Previous  Date       Current Mesonet Observations  Soil Data  Daily Summary Page  Observations in Plain Language
KAD1 130600Z 26012KT 07/M05 A2968 RMK A01 T00711049  RH  042%=      5-min Rain = 0
KAD1 130601Z 25012KT 07/M05 A2968 RMK A01 T00711049  RH  042%=      5-min Rain = 0
KAD1 130602Z 25012KT 07/M05 A2968 RMK A01 T00701049  RH  042%=      5-min Rain = 0
KAD1 130603Z 25013KT 07/M05 A2968 RMK A01 T00701049  RH  043%=      5-min Rain = 0
KAD1 130604Z 25013KT 07/M05 A2968 RMK A01 T00701049  RH  043%=      5-min Rain = 0
KAD1 130605Z 25013KT 07/M05 A2968 RMK A01 T00701049  RH  043%=      5-min Rain = 0
KAD1 130606Z 25012KT 07/M05 A2968 RMK A01 T00701048  RH  043%=      5-min Rain = 0
KAD1 130607Z 25011KT 07/M05 A2968 RMK A01 T00691049  RH  043%=      5-min Rain = 0
KAD1 130608Z 25012KT 07/M05 A2968 RMK A01 T00681049  RH  043%=      5-min Rain = 0
KAD1 130609Z 25011KT 07/M05 A2968 RMK A01 T00671049  RH  043%=      5-min Rain = 0
KAD1 130610Z 26011KT 07/M05 A2968 RMK A01 T00661049  RH  044%=      5-min Rain = 0
KAD1 130611Z 26010KT 07/M05 A2968 RMK A01 T00661049  RH  044%=      5-min Rain = 0
KAD1 130612Z 25011KT 07/M05 A2968 RMK A01 T00651049  RH  044%=      5-min Rain = 0
KAD1 130613Z 25012KT 07/M05 A2968 RMK A01 T00651048  RH  044%=      5-min Rain = 0
KAD1 130614Z 25011KT 06/M05 A2968 RMK A01 T00641048  RH  044%=      5-min Rain = 0
KAD1 130615Z 26012KT 06/M05 A2968 RMK A01 T00641048  RH  044%=      5-min Rain = 0
KAD1 130616Z 26010KT 06/M05 A2968 RMK A01 T00641048  RH  044%=      5-min Rain = 0
KAD1 130617Z 26010KT 06/M05 A2968 RMK A01 T00631049  RH  045%=      5-min Rain = 0
KAD1 130618Z 26011KT 06/M05 A2968 RMK A01 T00621049  RH  045%=      5-min Rain = 0
KAD1 130619Z 26011KT 06/M05 A2968 RMK A01 T00621048  RH  045%=      5-min Rain = 0
KAD1 130620Z 26011KT 06/M05 A2968 RMK A01 T00631048  RH  045%=      5-min Rain = 0
KAD1 130621Z 26011KT 06/M05 A2968 RMK A01 T00621048  RH  045%=      5-min Rain = 0
KAD1 130622Z 26011KT 06/M05 A2968 RMK A01 T00621049  RH  045%=      5-min Rain = 0
KAD1 130623Z 26011KT 06/M05 A2968 RMK A01 T00621049  RH  045%=      5-min Rain = 0
KAD1 130624Z 26012KT 06/M05 A2968 RMK A01 T00621048  RH  045%=      5-min Rain = 0
KAD1 130625Z 26011KT 06/M05 A2968 RMK A01 T00631048  RH  045%=      5-min Rain = 0
KAD1 130626Z 26011KT 06/M05 A2968 RMK A01 T00631048  RH  045%=      5-min Rain = 0
KAD1 130627Z 26011KT 06/M05 A2968 RMK A01 T00641048  RH  045%=      5-min Rain = 0
KAD1 130628Z 25010KT 06/M05 A2968 RMK A01 T00641047  RH  045%=      5-min Rain = 0
KAD1 130629Z 25011KT 06/M05 A2968 RMK A01 T00641047  RH  045%=      5-min Rain = 0
KAD1 130630Z 25011KT 06/M05 A2968 RMK A01 T00641048  RH  045%=      5-min Rain = 0
KAD1 130631Z 25011KT 06/M05 A2968 RMK A01 T00631048  RH  045%=      5-min Rain = 0
KAD1 130632Z 25011KT 06/M05 A2968 RMK A01 T00631047  RH  045%=      5-min Rain = 0
KAD1 130633Z 25012KT 06/M05 A2968 RMK A01 T00631047  RH  045%=      5-min Rain = 0
KAD1 130634Z 24012KT 06/M05 A2968 RMK A01 T00641047  RH  045%=      5-min Rain = 0
KAD1 130635Z 24011KT 07/M05 A2968 RMK A01 T00651047  RH  045%=      5-min Rain = 0
KAD1 130636Z 24011KT 07/M05 A2968 RMK A01 T00651047  RH  044%=      5-min Rain = 0
KAD1 130637Z 25012KT 07/M05 A2968 RMK A01 T00661047  RH  044%=      5-min Rain = 0
KAD1 130638Z 25012KT 07/M05 A2968 RMK A01 T00681047  RH  044%=      5-min Rain = 0
KAD1 130639Z 25012KT 07/M05 A2968 RMK A01 T00691047  RH  043%=      5-min Rain = 0
KAD1 130640Z 25012KT 07/M05 A2968 RMK A01 T00701047  RH  043%=      5-min Rain = 0
KAD1 130641Z 25012KT 07/M05 A2968 RMK A01 T00701047  RH  043%=      5-min Rain = 0
KAD1 130642Z 25013KT 07/M05 A2968 RMK A01 T00701047  RH  043%=      5-min Rain = 0
KAD1 130643Z 25012KT 07/M05 A2968 RMK A01 T00691047  RH  043%=      5-min Rain = 0
KAD1 130644Z 25013KT 07/M05 A2968 RMK A01 T00681047  RH  044%=      5-min Rain = 0
KAD1 130645Z 25012KT 07/M05 A2968 RMK A01 T00671047  RH  044%=      5-min Rain = 0
KAD1 130646Z 25012KT 07/M05 A2968 RMK A01 T00671047  RH  044%=      5-min Rain = 0
KAD1 130647Z 26012KT 07/M05 A2968 RMK A01 T00671047  RH  044%=      5-min Rain = 0
KAD1 130648Z 26013KT 07/M05 A2968 RMK A01 T00671047  RH  044%=      5-min Rain = 0
KAD1 130649Z 25013KT 07/M05 A2968 RMK A01 T00671046  RH  044%=      5-min Rain = 0
KAD1 130650Z 26013KT 07/M05 A2968 RMK A01 T00671047  RH  044%=      5-min Rain = 0
KAD1 130651Z 26012KT 07/M05 A2968 RMK A01 T00671047  RH  044%=      5-min Rain = 0
KAD1 130652Z 26012KT 07/M05 A2968 RMK A01 T00671047  RH  044%=      5-min Rain = 0
KAD1 130653Z 26011KT 07/M05 A2968 RMK A01 T00671046  RH  044%=      5-min Rain = 0
KAD1 130654Z 25012KT 07/M05 A2968 RMK A01 T00681046  RH  044%=      5-min Rain = 0
KAD1 130655Z 26012KT 07/M05 A2968 RMK A01 T00671046  RH  044%=      5-min Rain = 0
KAD1 130656Z 26013KT 07/M05 A2968 RMK A01 T00671046  RH  044%=      5-min Rain = 0
KAD1 130657Z 26012KT 07/M05 A2969 RMK A01 T00681046  RH  044%=      5-min Rain = 0
KAD1 130658Z 26013KT 07/M05 A2969 RMK A01 T00681046  RH  044%=      5-min Rain = 0
KAD1 130659Z 26013KT 07/M05 A2969 RMK A01 T00681046  RH  044%=      5-min Rain = 0
KAD1 130700Z 26013KT 07/M05 A2969 RMK A01 T00681045  RH  044%=      5-min Rain = 0
KAD1 130701Z 26013KT 07/M05 A2969 RMK A01 T00681045  RH  044%=      5-min Rain = 0
KAD1 130702Z 26012KT 07/M05 A2969 RMK A01 T00681045  RH  044%=      5-min Rain = 0
KAD1 130703Z 26013KT 07/M05 A2969 RMK A01 T00681045  RH  044%=      5-min Rain = 0
KAD1 130704Z 26013KT 07/M05 A2969 RMK A01 T00681045  RH  044%=      5-min Rain = 0
KAD1 130705Z 26013KT 07/M05 A2969 RMK A01 T00681045  RH  044%=      5-min Rain = 0
KAD1 130706Z 26012KT 07/M05 A2969 RMK A01 T00681045  RH  044%=      5-min Rain = 0
KAD1 130707Z 26012KT 07/M05 A2969 RMK A01 T00671045  RH  045%=      5-min Rain = 0
KAD1 130708Z 26012KT 07/M05 A2969 RMK A01 T00671045  RH  045%=      5-min Rain = 0
KAD1 130709Z 27013KT 07/M05 A2969 RMK A01 T00671045  RH  045%=      5-min Rain = 0
KAD1 130710Z 26012KT 07/M05 A297 RMK A01 T00671045  RH  045%=      5-min Rain = 0
KAD1 130711Z 27012KT 07/M05 A297 RMK A01 T00671045  RH  045%=      5-min Rain = 0
KAD1 130712Z 27012KT 07/M05 A297 RMK A01 T00671045  RH  045%=      5-min Rain = 0
KAD1 130713Z 28013KT 07/M05 A297 RMK A01 T00671045  RH  045%=      5-min Rain = 0
KAD1 130714Z 28013KT 07/M05 A2971 RMK A01 T00671045  RH  045%=      5-min Rain = 0
KAD1 130715Z 29012KT 07/M04 A2971 RMK A01 T00671044  RH  045%=      5-min Rain = 0
KAD1 130716Z 29012KT 07/M05 A2971 RMK A01 T00661045  RH  045%=      5-min Rain = 0
KAD1 130717Z 30018G23KT 07/M05 A2971 RMK A01 T00661046  RH  044%=      5-min Rain = 0
KAD1 130718Z 30019G24KT 07/M05 A2971 RMK A01 T00721049  RH  042%=      5-min Rain = 0
KAD1 130719Z 31015KT 08/M05 A2971 RMK A01 T00751050  RH  041%=      5-min Rain = 0
KAD1 130720Z 32022G27KT 08/M05 A2971 RMK A01 T00751052  RH  040%=      5-min Rain = 0
KAD1 130721Z 31021G26KT 08/M06 A2972 RMK A01 T00771058  RH  038%=      5-min Rain = 0
KAD1 130722Z 32022KT 08/M06 A2972 RMK A01 T00781062  RH  036%=      5-min Rain = 0
KAD1 130723Z 32021G26KT 08/M07 A2972 RMK A01 T00801065  RH  035%=      5-min Rain = 0
KAD1 130724Z 32021KT 08/M07 A2972 RMK A01 T00811068  RH  034%=      5-min Rain = 0
KAD1 130725Z 32020KT 08/M07 A2972 RMK A01 T00811069  RH  034%=      5-min Rain = 0
KAD1 130726Z 32020KT 08/M07 A2972 RMK A01 T00811070  RH  034%=      5-min Rain = 0
KAD1 130727Z 32019G24KT 08/M07 A2972 RMK A01 T00801073  RH  033%=      5-min Rain = 0
KAD1 130728Z 32022KT 08/M08 A2972 RMK A01 T00801076  RH  032%=      5-min Rain = 0
KAD1 130729Z 32021KT 08/M08 A2972 RMK A01 T00801079  RH  031%=      5-min Rain = 0
KAD1 130730Z 32021KT 08/M08 A2972 RMK A01 T00801080  RH  031%=      5-min Rain = 0
KAD1 130731Z 32022KT 08/M08 A2972 RMK A01 T00801081  RH  031%=      5-min Rain = 0
KAD1 130732Z 32017KT 08/M08 A2972 RMK A01 T00801082  RH  031%=      5-min Rain = 0
KAD1 130733Z 32015KT 08/M08 A2972 RMK A01 T00791082  RH  031%=      5-min Rain = 0
KAD1 130734Z 33017KT 08/M08 A2972 RMK A01 T00771081  RH  032%=      5-min Rain = 0
KAD1 130735Z 32017KT 08/M08 A2973 RMK A01 T00771082  RH  032%=      5-min Rain = 0
KAD1 130736Z 33018KT 08/M08 A2973 RMK A01 T00761083  RH  031%=      5-min Rain = 0
KAD1 130737Z 33017KT 08/M08 A2973 RMK A01 T00751084  RH  031%=      5-min Rain = 0
KAD1 130738Z 33019KT 08/M09 A2973 RMK A01 T00751085  RH  031%=      5-min Rain = 0
KAD1 130739Z 34019G24KT 07/M09 A2973 RMK A01 T00741086  RH  031%=      5-min Rain = 0
KAD1 130740Z 34023KT 07/M09 A2973 RMK A01 T00741086  RH  031%=      5-min Rain = 0
KAD1 130741Z 34024G29KT 07/M09 A2973 RMK A01 T00731086  RH  031%=      5-min Rain = 0
KAD1 130742Z 34021KT 07/M09 A2974 RMK A01 T00721086  RH  032%=      5-min Rain = 0
KAD1 130743Z 34020KT 07/M09 A2974 RMK A01 T00701085  RH  032%=      5-min Rain = 0
KAD1 130744Z 34020KT 07/M08 A2974 RMK A01 T00681083  RH  033%=      5-min Rain = 0
KAD1 130745Z 34019KT 07/M08 A2974 RMK A01 T00671083  RH  034%=      5-min Rain = 0
KAD1 130746Z 36025G34KT 07/M08 A2974 RMK A01 T00651082  RH  034%=      5-min Rain = 0
KAD1 130747Z 35027G38KT 06/M08 A2975 RMK A01 T00611082  RH  035%=      5-min Rain = 0
KAD1 130748Z 35034KT 06/M08 A2975 RMK A01 T00581081  RH  036%=      5-min Rain = 0
KAD1 130749Z 35032G39KT 06/M08 A2975 RMK A01 T00551080  RH  037%=      5-min Rain = 0
KAD1 130750Z 35030G35KT 05/M08 A2975 RMK A01 T00531079  RH  038%=      5-min Rain = 0
KAD1 130751Z 35026KT 05/M08 A2975 RMK A01 T00521079  RH  038%=      5-min Rain = 0
KAD1 130752Z 34026G31KT 05/M08 A2975 RMK A01 T00511078  RH  039%=      5-min Rain = 0
KAD1 130753Z 34026KT 05/M08 A2975 RMK A01 T00501078  RH  039%=      5-min Rain = 0
KAD1 130754Z 35021G26KT 05/M08 A2975 RMK A01 T00491078  RH  039%=      5-min Rain = 0
KAD1 130755Z 35023G28KT 05/M08 A2975 RMK A01 T00481078  RH  040%=      5-min Rain = 0
KAD1 130756Z 35021KT 05/M08 A2975 RMK A01 T00481077  RH  040%=      5-min Rain = 0
KAD1 130757Z 35019KT 05/M08 A2975 RMK A01 T00461078  RH  040%=      5-min Rain = 0
KAD1 130758Z 35021KT 05/M08 A2975 RMK A01 T00451078  RH  041%=      5-min Rain = 0
KAD1 130759Z 35021G26KT 04/M08 A2975 RMK A01 T00441078  RH  041%=      5-min Rain = 0
KAD1 130800Z 35023G29KT 04/M08 A2976 RMK A01 T00421079  RH  041%=      5-min Rain = 0
KAD1 130801Z 35026G32KT 04/M08 A2976 RMK A01 T00401080  RH  041%=      5-min Rain = 0
KAD1 130802Z 35026G35KT 04/M08 A2976 RMK A01 T00381081  RH  041%=      5-min Rain = 0
KAD1 130803Z 35028G34KT 04/M08 A2976 RMK A01 T00361082  RH  042%=      5-min Rain = 0
KAD1 130804Z 35023G29KT 04/M08 A2976 RMK A01 T00351082  RH  042%=      5-min Rain = 0
KAD1 130805Z 35023G28KT 03/M08 A2976 RMK A01 T00341082  RH  042%=      5-min Rain = 0
KAD1 130806Z 35024G30KT 03/M08 A2976 RMK A01 T00341082  RH  042%=      5-min Rain = 0
KAD1 130807Z 36022KT 03/M08 A2976 RMK A01 T00331082  RH  043%=      5-min Rain = 0
KAD1 130808Z 36022G30KT 03/M08 A2976 RMK A01 T00331081  RH  043%=      5-min Rain = 0
KAD1 130809Z 00027KT 03/M08 A2976 RMK A01 T00321081  RH  043%=      5-min Rain = 0
KAD1 130810Z 00026KT 03/M08 A2976 RMK A01 T00321081  RH  043%=      5-min Rain = 0
KAD1 130811Z 36024G30KT 03/M08 A2977 RMK A01 T00321081  RH  043%=      5-min Rain = 0
KAD1 130812Z 00025G30KT 03/M08 A2977 RMK A01 T00321081  RH  043%=      5-min Rain = 0
KAD1 130813Z 36024KT 03/M08 A2977 RMK A01 T00321080  RH  044%=      5-min Rain = 0
KAD1 130814Z 35027KT 03/M08 A2977 RMK A01 T00321080  RH  044%=      5-min Rain = 0
KAD1 130815Z 01026KT 03/M08 A2978 RMK A01 T00321080  RH  044%=      5-min Rain = 0
KAD1 130816Z 00020KT 03/M08 A2978 RMK A01 T00321080  RH  044%=      5-min Rain = 0
KAD1 130817Z 00020KT 03/M08 A2978 RMK A01 T00311080  RH  044%=      5-min Rain = 0
KAD1 130818Z 01020KT 03/M08 A2978 RMK A01 T00311080  RH  044%=      5-min Rain = 0
KAD1 130819Z 01019KT 03/M08 A2978 RMK A01 T00311079  RH  044%=      5-min Rain = 0
KAD1 130820Z 01020G26KT 03/M08 A2978 RMK A01 T00301079  RH  044%=      5-min Rain = 0
KAD1 130821Z 01020KT 03/M08 A2978 RMK A01 T00301079  RH  044%=      5-min Rain = 0
KAD1 130822Z 01023KT 03/M08 A2978 RMK A01 T00301080  RH  044%=      5-min Rain = 0
KAD1 130823Z 01022G27KT 03/M08 A2978 RMK A01 T00301080  RH  044%=      5-min Rain = 0
KAD1 130824Z 01021G27KT 03/M08 A2978 RMK A01 T00301079  RH  045%=      5-min Rain = 0
KAD1 130825Z 02023G29KT 03/M08 A2978 RMK A01 T00301079  RH  045%=      5-min Rain = 0
KAD1 130826Z 02023KT 03/M08 A2978 RMK A01 T00301078  RH  045%=      5-min Rain = 0
KAD1 130827Z 01023KT 03/M08 A2978 RMK A01 T00301078  RH  045%=      5-min Rain = 0
KAD1 130828Z 02022G28KT 03/M08 A2978 RMK A01 T00291078  RH  045%=      5-min Rain = 0
KAD1 130829Z 02021KT 03/M08 A2979 RMK A01 T00291077  RH  045%=      5-min Rain = 0
KAD1 130830Z 02023KT 03/M08 A2979 RMK A01 T00291077  RH  046%=      5-min Rain = 0
KAD1 130831Z 02025KT 03/M08 A2979 RMK A01 T00291077  RH  046%=      5-min Rain = 0
KAD1 130832Z 02021G28KT 03/M08 A2979 RMK A01 T00291076  RH  046%=      5-min Rain = 0
KAD1 130833Z 01022KT 03/M08 A2979 RMK A01 T00281075  RH  046%=      5-min Rain = 0
KAD1 130834Z 02025G34KT 03/M08 A2979 RMK A01 T00281075  RH  047%=      5-min Rain = 0
KAD1 130835Z 02028G33KT 03/M07 A2979 RMK A01 T00291073  RH  047%=      5-min Rain = 0
KAD1 130836Z 02026KT 03/M07 A2979 RMK A01 T00301072  RH  047%=      5-min Rain = 0
KAD1 130837Z 02030G36KT 03/M07 A2979 RMK A01 T00311071  RH  047%=      5-min Rain = 0
KAD1 130838Z 02029G37KT 03/M07 A298 RMK A01 T00321070  RH  047%=      5-min Rain = 0
KAD1 130839Z 02026KT 03/M07 A298 RMK A01 T00321070  RH  047%=      5-min Rain = 0
KAD1 130840Z 02024KT 03/M07 A298 RMK A01 T00321070  RH  047%=      5-min Rain = 0
KAD1 130841Z 02027G34KT 03/M07 A298 RMK A01 T00321069  RH  047%=      5-min Rain = 0
KAD1 130842Z 02028KT 03/M07 A298 RMK A01 T00331069  RH  047%=      5-min Rain = 0
KAD1 130843Z 03027G32KT 03/M07 A298 RMK A01 T00331068  RH  047%=      5-min Rain = 0
KAD1 130844Z 03029G35KT 03/M07 A298 RMK A01 T00341068  RH  047%=      5-min Rain = 0
KAD1 130845Z 03027G32KT 04/M07 A298 RMK A01 T00351066  RH  048%=      5-min Rain = 0
KAD1 130846Z 03031G36KT 04/M07 A298 RMK A01 T00351065  RH  048%=      5-min Rain = 0
KAD1 130847Z 02033KT 04/M06 A298 RMK A01 T00361064  RH  048%=      5-min Rain = 0
KAD1 130848Z 02029G36KT 04/M06 A298 RMK A01 T00371064  RH  048%=      5-min Rain = 0
KAD1 130849Z 02029KT 04/M06 A298 RMK A01 T00371064  RH  048%=      5-min Rain = 0
KAD1 130850Z 02029G36KT 04/M06 A298 RMK A01 T00371064  RH  048%=      5-min Rain = 0
KAD1 130851Z 02027G32KT 04/M06 A298 RMK A01 T00371064  RH  048%=      5-min Rain = 0
KAD1 130852Z 02029G36KT 04/M06 A298 RMK A01 T00381063  RH  048%=      5-min Rain = 0
KAD1 130853Z 02026KT 04/M06 A298 RMK A01 T00381063  RH  047%=      5-min Rain = 0
KAD1 130854Z 02024G29KT 04/M06 A298 RMK A01 T00381063  RH  047%=      5-min Rain = 0
KAD1 130855Z 02023G28KT 04/M06 A298 RMK A01 T00381063  RH  048%=      5-min Rain = 0
KAD1 130856Z 02027G33KT 04/M06 A298 RMK A01 T00381063  RH  048%=      5-min Rain = 0
KAD1 130857Z 02030KT 04/M06 A2979 RMK A01 T00381063  RH  048%=      5-min Rain = 0
KAD1 130858Z 02029G34KT 04/M06 A2979 RMK A01 T00381063  RH  047%=      5-min Rain = 0
KAD1 130859Z 02027KT 04/M06 A2979 RMK A01 T00391063  RH  047%=      5-min Rain = 0
KAD1 130900Z 02025KT 04/M06 A2979 RMK A01 T00391063  RH  047%=      5-min Rain = 0
KAD1 130901Z 02027G34KT 04/M06 A2979 RMK A01 T00391063  RH  047%=      5-min Rain = 0
KAD1 130902Z 02026KT 04/M06 A2979 RMK A01 T00381063  RH  048%=      5-min Rain = 0
KAD1 130903Z 02027KT 04/M06 A2979 RMK A01 T00381062  RH  048%=      5-min Rain = 0
KAD1 130904Z 02026G31KT 04/M06 A298 RMK A01 T00391061  RH  048%=      5-min Rain = 0
KAD1 130905Z 02027G40KT 04/M06 A298 RMK A01 T00391060  RH  048%=      5-min Rain = 0
KAD1 130906Z 02029G35KT 04/M06 A298 RMK A01 T00391059  RH  049%=      5-min Rain = 0
KAD1 130907Z 02030G36KT 04/M06 A298 RMK A01 T00401055  RH  050%=      5-min Rain = 0
KAD1 130908Z 02031G37KT 04/M05 A298 RMK A01 T00401054  RH  050%=      5-min Rain = 0
KAD1 130909Z 02032G37KT 04/M05 A298 RMK A01 T00401052  RH  051%=      5-min Rain = 0
KAD1 130910Z 02030KT 04/M05 A298 RMK A01 T00401051  RH  051%=      5-min Rain = 0
KAD1 130911Z 02033G39KT 04/M05 A298 RMK A01 T00401050  RH  052%=      5-min Rain = 0
KAD1 130912Z 02030G36KT 04/M05 A298 RMK A01 T00401049  RH  052%=      5-min Rain = 0
KAD1 130913Z 02027KT 04/M05 A298 RMK A01 T00401049  RH  052%=      5-min Rain = 0
KAD1 130914Z 02032G43KT 04/M05 A298 RMK A01 T00391049  RH  053%=      5-min Rain = 0
KAD1 130915Z 02035G40KT 04/M05 A298 RMK A01 T00391048  RH  053%=      5-min Rain = 0
KAD1 130916Z 02038KT 04/M05 A298 RMK A01 T00391047  RH  054%=      5-min Rain = 0
KAD1 130917Z 02038G46KT 04/M05 A298 RMK A01 T00381046  RH  054%=      5-min Rain = 0
KAD1 130918Z 02036G41KT 04/M05 A298 RMK A01 T00381046  RH  054%=      5-min Rain = 0
KAD1 130919Z 02031G39KT 04/M05 A298 RMK A01 T00371045  RH  055%=      5-min Rain = 0
KAD1 130920Z 02030G35KT 04/M05 A298 RMK A01 T00371045  RH  055%=      5-min Rain = 0
KAD1 130921Z 03032G38KT 04/M05 A298 RMK A01 T00361045  RH  055%=      5-min Rain = 0
KAD1 130922Z 02033G40KT 04/M04 A2981 RMK A01 T00361044  RH  056%=      5-min Rain = 0
KAD1 130923Z 02035KT 04/M04 A2981 RMK A01 T00361044  RH  056%=      5-min Rain = 0
KAD1 130924Z 02034G41KT 04/M04 A298 RMK A01 T00351043  RH  056%=      5-min Rain = 0
KAD1 130925Z 02034G39KT 04/M04 A2981 RMK A01 T00351043  RH  057%=      5-min Rain = 0
KAD1 130926Z 02029G34KT 04/M04 A2981 RMK A01 T00351043  RH  057%=      5-min Rain = 0
KAD1 130927Z 02031G38KT 03/M04 A2981 RMK A01 T00341043  RH  057%=      5-min Rain = 0
KAD1 130928Z 02026KT 03/M04 A2981 RMK A01 T00341042  RH  057%=      5-min Rain = 0
KAD1 130929Z 02027G38KT 03/M04 A2981 RMK A01 T00331042  RH  058%=      5-min Rain = 0
KAD1 130930Z 02027G33KT 03/M04 A2982 RMK A01 T00331043  RH  058%=      5-min Rain = 0
KAD1 130931Z 02028G36KT 03/M04 A2981 RMK A01 T00331042  RH  058%=      5-min Rain = 0
KAD1 130932Z 02030G37KT 03/M04 A2981 RMK A01 T00331041  RH  058%=      5-min Rain = 0
KAD1 130933Z 02030G36KT 03/M04 A2981 RMK A01 T00321041  RH  059%=      5-min Rain = 0
KAD1 130934Z 02030KT 03/M04 A2981 RMK A01 T00321041  RH  059%=      5-min Rain = 0
KAD1 130935Z 02028G36KT 03/M04 A2981 RMK A01 T00321040  RH  059%=      5-min Rain = 0
KAD1 130936Z 02027G33KT 03/M04 A2981 RMK A01 T00311041  RH  059%=      5-min Rain = 0
KAD1 130937Z 02031KT 03/M04 A2981 RMK A01 T00311040  RH  060%=      5-min Rain = 0
KAD1 130938Z 02032G38KT 03/M04 A2981 RMK A01 T00311039  RH  060%=      5-min Rain = 0
KAD1 130939Z 02033G40KT 03/M04 A2982 RMK A01 T00311039  RH  060%=      5-min Rain = 0
KAD1 130940Z 02030G38KT 03/M04 A2981 RMK A01 T00311039  RH  060%=      5-min Rain = 0
KAD1 130941Z 02034KT 03/M04 A2981 RMK A01 T00301039  RH  060%=      5-min Rain = 0
KAD1 130942Z 02032KT 03/M04 A2981 RMK A01 T00301039  RH  060%=      5-min Rain = 0
KAD1 130943Z 02031G36KT 03/M04 A2981 RMK A01 T00301039  RH  060%=      5-min Rain = 0
KAD1 130944Z 01029G37KT 03/M04 A2981 RMK A01 T00301039  RH  061%=      5-min Rain = 0
KAD1 130945Z 02034G41KT 03/M04 A2981 RMK A01 T00291039  RH  061%=      5-min Rain = 0
KAD1 130946Z 02029G36KT 03/M04 A2981 RMK A01 T00291039  RH  061%=      5-min Rain = 0
KAD1 130947Z 01029G34KT 03/M04 A2981 RMK A01 T00281039  RH  061%=      5-min Rain = 0
KAD1 130948Z 02033G39KT 03/M04 A2981 RMK A01 T00281039  RH  061%=      5-min Rain = 0
KAD1 130949Z 01031KT 03/M04 A2981 RMK A01 T00281039  RH  061%=      5-min Rain = 0
KAD1 130950Z 01029KT 03/M04 A2981 RMK A01 T00281039  RH  061%=      5-min Rain = 0
KAD1 130951Z 01032G38KT 03/M04 A2981 RMK A01 T00271039  RH  061%=      5-min Rain = 0
KAD1 130952Z 01035G42KT 03/M04 A2981 RMK A01 T00271039  RH  062%=      5-min Rain = 0
KAD1 130953Z 01037G45KT 03/M04 A2982 RMK A01 T00261039  RH  062%=      5-min Rain = 0
KAD1 130954Z 02037G43KT 03/M04 A2981 RMK A01 T00261038  RH  062%=      5-min Rain = 0
KAD1 130955Z 02034G40KT 03/M04 A2982 RMK A01 T00261039  RH  062%=      5-min Rain = 0
KAD1 130956Z 01037G43KT 03/M04 A2982 RMK A01 T00251038  RH  063%=      5-min Rain = 0
KAD1 130957Z 01034G40KT 03/M04 A2982 RMK A01 T00251038  RH  063%=      5-min Rain = 0
KAD1 130958Z 01037KT 03/M04 A2982 RMK A01 T00251038  RH  063%=      5-min Rain = 0
KAD1 130959Z 02036G42KT 02/M04 A2982 RMK A01 T00241037  RH  064%=      5-min Rain = 0
KAD1 131000Z 02037G42KT 02/M04 A2982 RMK A01 T00241037  RH  064%=      5-min Rain = 0
KAD1 131001Z 02038KT 02/M04 A2982 RMK A01 T00241037  RH  064%=      5-min Rain = 0
KAD1 131002Z 01031KT 02/M04 A2983 RMK A01 T00241037  RH  064%=      5-min Rain = 0
KAD1 131003Z 02039G46KT 02/M04 A2982 RMK A01 T00241036  RH  065%=      5-min Rain = 0
KAD1 131004Z 01037G45KT 02/M04 A2983 RMK A01 T00241036  RH  065%=      5-min Rain = 0
KAD1 131005Z 01033G41KT 02/M04 A2983 RMK A01 T00241036  RH  065%=      5-min Rain = 0
KAD1 131006Z 02035G43KT 02/M04 A2983 RMK A01 T00241036  RH  065%=      5-min Rain = 0
KAD1 131007Z 02032G42KT 02/M04 A2983 RMK A01 T00241035  RH  065%=      5-min Rain = 0
KAD1 131008Z 02029G34KT 02/M04 A2983 RMK A01 T00231036  RH  065%=      5-min Rain = 0
KAD1 131009Z 02031G37KT 02/M04 A2983 RMK A01 T00221036  RH  066%=      5-min Rain = 0
KAD1 131010Z 02035G41KT 02/M04 A2983 RMK A01 T00221035  RH  066%=      5-min Rain = 0
KAD1 131011Z 02033G38KT 02/M04 A2983 RMK A01 T00221035  RH  066%=      5-min Rain = 0
KAD1 131012Z 02033G39KT 02/M04 A2983 RMK A01 T00221035  RH  066%=      5-min Rain = 0
KAD1 131013Z 02033G38KT 02/M04 A2983 RMK A01 T00221035  RH  066%=      5-min Rain = 0
KAD1 131014Z 02033G41KT 02/M04 A2984 RMK A01 T00221035  RH  066%=      5-min Rain = 0
KAD1 131015Z 02034G43KT 02/M03 A2984 RMK A01 T00221034  RH  066%=      5-min Rain = 0
KAD1 131016Z 02035G41KT 02/M03 A2983 RMK A01 T00221034  RH  066%=      5-min Rain = 0
KAD1 131017Z 02030G35KT 02/M03 A2984 RMK A01 T00221034  RH  066%=      5-min Rain = 0
KAD1 131018Z 02035G44KT 02/M03 A2983 RMK A01 T00221034  RH  066%=      5-min Rain = 0
KAD1 131019Z 02034G41KT 02/M03 A2983 RMK A01 T00221034  RH  067%=      5-min Rain = 0
KAD1 131020Z 02040G47KT 02/M03 A2984 RMK A01 T00221034  RH  067%=      5-min Rain = 0
KAD1 131021Z 02031G37KT 02/M03 A2984 RMK A01 T00221034  RH  067%=      5-min Rain = 0
KAD1 131022Z 02036KT 02/M03 A2983 RMK A01 T00221034  RH  067%=      5-min Rain = 0
KAD1 131023Z 02036KT 02/M03 A2983 RMK A01 T00221033  RH  067%=      5-min Rain = 0
KAD1 131024Z 02034G43KT 02/M03 A2984 RMK A01 T00221033  RH  067%=      5-min Rain = 0
KAD1 131025Z 01036G43KT 02/M03 A2984 RMK A01 T00221033  RH  067%=      5-min Rain = 0
KAD1 131026Z 02033G41KT 02/M03 A2984 RMK A01 T00221033  RH  067%=      5-min Rain = 0
KAD1 131027Z 02031G38KT 02/M03 A2984 RMK A01 T00221034  RH  067%=      5-min Rain = 0
KAD1 131028Z 01035KT 02/M03 A2984 RMK A01 T00221033  RH  067%=      5-min Rain = 0
KAD1 131029Z 02032G37KT 02/M03 A2984 RMK A01 T00221033  RH  067%=      5-min Rain = 0
KAD1 131030Z 02033G40KT 02/M03 A2985 RMK A01 T00231033  RH  067%=      5-min Rain = 0
KAD1 131031Z 01031KT 02/M03 A2985 RMK A01 T00231033  RH  067%=      5-min Rain = 0
KAD1 131032Z 01028G33KT 02/M03 A2985 RMK A01 T00231033  RH  067%=      5-min Rain = 0
KAD1 131033Z 01030G39KT 02/M03 A2985 RMK A01 T00221033  RH  067%=      5-min Rain = 0
KAD1 131034Z 01036G47KT 02/M03 A2985 RMK A01 T00221033  RH  067%=      5-min Rain = 0
KAD1 131035Z 02041G49KT 02/M03 A2985 RMK A01 T00231032  RH  067%=      5-min Rain = 0
KAD1 131036Z 01036G41KT 02/M03 A2985 RMK A01 T00241032  RH  066%=      5-min Rain = 0
KAD1 131037Z 02035G42KT 02/M03 A2985 RMK A01 T00241032  RH  066%=      5-min Rain = 0
KAD1 131038Z 01035KT 02/M03 A2985 RMK A01 T00241032  RH  066%=      5-min Rain = 0
KAD1 131039Z 01032G40KT 02/M03 A2985 RMK A01 T00241032  RH  067%=      5-min Rain = 0
KAD1 131040Z 01034G42KT 02/M03 A2985 RMK A01 T00241032  RH  067%=      5-min Rain = 0
KAD1 131041Z 02030G36KT 02/M03 A2985 RMK A01 T00241032  RH  067%=      5-min Rain = 0
KAD1 131042Z 02027G34KT 02/M03 A2985 RMK A01 T00231032  RH  067%=      5-min Rain = 0
KAD1 131043Z 02033G38KT 02/M03 A2985 RMK A01 T00231033  RH  067%=      5-min Rain = 0
KAD1 131044Z 01032G38KT 02/M03 A2985 RMK A01 T00231032  RH  067%=      5-min Rain = 0
KAD1 131045Z 02029KT 02/M03 A2985 RMK A01 T00231032  RH  067%=      5-min Rain = 0
KAD1 131046Z 01031G41KT 02/M03 A2985 RMK A01 T00231032  RH  067%=      5-min Rain = 0
KAD1 131047Z 02034G41KT 02/M03 A2985 RMK A01 T00221033  RH  067%=      5-min Rain = 0
KAD1 131048Z 02029KT 02/M03 A2985 RMK A01 T00231033  RH  067%=      5-min Rain = 0
KAD1 131049Z 02032G37KT 02/M03 A2985 RMK A01 T00231033  RH  067%=      5-min Rain = 0
KAD1 131050Z 01030G36KT 02/M03 A2985 RMK A01 T00231033  RH  067%=      5-min Rain = 0
KAD1 131051Z 02032G38KT 02/M03 A2985 RMK A01 T00231033  RH  067%=      5-min Rain = 0
KAD1 131052Z 02040G45KT 02/M03 A2985 RMK A01 T00231033  RH  067%=      5-min Rain = 0
KAD1 131053Z 02032G40KT 02/M03 A2985 RMK A01 T00241033  RH  066%=      5-min Rain = 0
KAD1 131054Z 02032KT 02/M03 A2985 RMK A01 T00241033  RH  066%=      5-min Rain = 0
KAD1 131055Z 02032G37KT 02/M03 A2986 RMK A01 T00241033  RH  066%=      5-min Rain = 0
KAD1 131056Z 02028KT 02/M03 A2986 RMK A01 T00231033  RH  066%=      5-min Rain = 0
KAD1 131057Z 02031G38KT 02/M03 A2986 RMK A01 T00231033  RH  066%=      5-min Rain = 0
KAD1 131058Z 02032G41KT 02/M03 A2986 RMK A01 T00231033  RH  066%=      5-min Rain = 0
KAD1 131059Z 02035G43KT 02/M03 A2986 RMK A01 T00231033  RH  066%=      5-min Rain = 0
KAD1 131100Z 01031G36KT 02/M03 A2986 RMK A01 T00231034  RH  066%=      5-min Rain = 0
KAD1 131101Z 01030KT 02/M03 A2986 RMK A01 T00231034  RH  066%=      5-min Rain = 0
KAD1 131102Z 02030G36KT 02/M03 A2986 RMK A01 T00231034  RH  066%=      5-min Rain = 0
KAD1 131103Z 02034G44KT 02/M03 A2987 RMK A01 T00231034  RH  066%=      5-min Rain = 0
KAD1 131104Z 01032G37KT 02/M03 A2987 RMK A01 T00231034  RH  066%=      5-min Rain = 0
KAD1 131105Z 01035G41KT 02/M03 A2987 RMK A01 T00241034  RH  065%=      5-min Rain = 0
KAD1 131106Z 01036G43KT 02/M03 A2987 RMK A01 T00241034  RH  065%=      5-min Rain = 0
KAD1 131107Z 01035KT 02/M04 A2987 RMK A01 T00241035  RH  065%=      5-min Rain = 0
KAD1 131108Z 01040G46KT 02/M04 A2987 RMK A01 T00241035  RH  065%=      5-min Rain = 0
KAD1 131109Z 01034G41KT 02/M04 A2987 RMK A01 T00241035  RH  065%=      5-min Rain = 0
KAD1 131110Z 01032G40KT 03/M04 A2987 RMK A01 T00251035  RH  065%=      5-min Rain = 0
KAD1 131111Z 02035G42KT 02/M04 A2987 RMK A01 T00241035  RH  065%=      5-min Rain = 0
KAD1 131112Z 01035G42KT 03/M04 A2988 RMK A01 T00251035  RH  065%=      5-min Rain = 0
KAD1 131113Z 02033G41KT 02/M04 A2987 RMK A01 T00241036  RH  064%=      5-min Rain = 0
KAD1 131114Z 02032G42KT 02/M04 A2987 RMK A01 T00241036  RH  064%=      5-min Rain = 0
KAD1 131115Z 01036G46KT 03/M04 A2988 RMK A01 T00251036  RH  064%=      5-min Rain = 0
KAD1 131116Z 01035G40KT 02/M04 A2988 RMK A01 T00241036  RH  064%=      5-min Rain = 0
KAD1 131117Z 01041G49KT 03/M04 A2988 RMK A01 T00251036  RH  064%=      5-min Rain = 0
KAD1 131118Z 02039G44KT 02/M04 A2987 RMK A01 T00241037  RH  064%=      5-min Rain = 0
KAD1 131119Z 02037KT 03/M04 A2988 RMK A01 T00251036  RH  064%=      5-min Rain = 0
KAD1 131120Z 02040G48KT 02/M04 A2988 RMK A01 T00241036  RH  064%=      5-min Rain = 0
KAD1 131121Z 02040G45KT 03/M04 A2988 RMK A01 T00251036  RH  064%=      5-min Rain = 0
KAD1 131122Z 02037G44KT 02/M04 A2988 RMK A01 T00241037  RH  064%=      5-min Rain = 0
KAD1 131123Z 01040G46KT 02/M04 A2988 RMK A01 T00241037  RH  064%=      5-min Rain = 0
KAD1 131124Z 02039G46KT 02/M04 A2988 RMK A01 T00241037  RH  064%=      5-min Rain = 0
KAD1 131125Z 01042G50KT 02/M04 A2988 RMK A01 T00241037  RH  064%=      5-min Rain = 0
KAD1 131126Z 02038G45KT 02/M04 A2988 RMK A01 T00241038  RH  064%=      5-min Rain = 0
KAD1 131127Z 02044G57KT 02/M04 A2988 RMK A01 T00241038  RH  064%=      5-min Rain = 0
KAD1 131128Z 02040G52KT 02/M04 A2988 RMK A01 T00241038  RH  063%=      5-min Rain = 0
KAD1 131129Z 02039G49KT 02/M04 A2988 RMK A01 T00241038  RH  063%=      5-min Rain = 0
KAD1 131130Z 01039G46KT 03/M04 A2989 RMK A01 T00251038  RH  063%=      5-min Rain = 0
KAD1 131131Z 01034G41KT 03/M04 A2989 RMK A01 T00251038  RH  063%=      5-min Rain = 0
KAD1 131132Z 02037G45KT 02/M04 A2989 RMK A01 T00241038  RH  064%=      5-min Rain = 0
KAD1 131133Z 02040G49KT 02/M04 A2989 RMK A01 T00241037  RH  064%=      5-min Rain = 0
KAD1 131134Z 02036G44KT 03/M04 A2989 RMK A01 T00251037  RH  064%=      5-min Rain = 0
KAD1 131135Z 02036KT 02/M04 A2989 RMK A01 T00241037  RH  064%=      5-min Rain = 0
KAD1 131136Z 01035G41KT 02/M04 A299 RMK A01 T00241037  RH  064%=      5-min Rain = 0
KAD1 131137Z 01037G43KT 02/M04 A299 RMK A01 T00241036  RH  064%=      5-min Rain = 0
KAD1 131138Z 01037KT 02/M04 A299 RMK A01 T00231037  RH  065%=      5-min Rain = 0
KAD1 131139Z 02032G39KT 02/M04 A299 RMK A01 T00231036  RH  065%=      5-min Rain = 0
KAD1 131140Z 02033G39KT 02/M04 A299 RMK A01 T00231036  RH  065%=      5-min Rain = 0
KAD1 131141Z 01029G34KT 02/M04 A299 RMK A01 T00231036  RH  065%=      5-min Rain = 0
KAD1 131142Z 01032G37KT 02/M04 A299 RMK A01 T00231035  RH  065%=      5-min Rain = 0
KAD1 131143Z 01031KT 02/M04 A299 RMK A01 T00231036  RH  065%=      5-min Rain = 0
KAD1 131144Z 01031G36KT 02/M04 A299 RMK A01 T00231035  RH  065%=      5-min Rain = 0
KAD1 131145Z 01028KT 02/M04 A2991 RMK A01 T00231035  RH  066%=      5-min Rain = 0
KAD1 131146Z 01023KT 02/M04 A2991 RMK A01 T00221035  RH  066%=      5-min Rain = 0
KAD1 131147Z 00025G30KT 02/M03 A2991 RMK A01 T00221034  RH  066%=      5-min Rain = 0
KAD1 131148Z 01034G41KT 02/M03 A299 RMK A01 T00221034  RH  066%=      5-min Rain = 0
KAD1 131149Z 01034G40KT 02/M03 A2991 RMK A01 T00221034  RH  066%=      5-min Rain = 0
KAD1 131150Z 01035KT 02/M03 A2991 RMK A01 T00221034  RH  067%=      5-min Rain = 0
KAD1 131151Z 01030G38KT 02/M03 A2991 RMK A01 T00221034  RH  067%=      5-min Rain = 0
KAD1 131152Z 01030KT 02/M03 A2991 RMK A01 T00221034  RH  067%=      5-min Rain = 0
KAD1 131153Z 01031G41KT 02/M03 A2991 RMK A01 T00211034  RH  067%=      5-min Rain = 0
KAD1 131154Z 01035G40KT 02/M03 A2991 RMK A01 T00211033  RH  067%=      5-min Rain = 0
KAD1 131155Z 01034G41KT 02/M03 A2991 RMK A01 T00211034  RH  067%=      5-min Rain = 0
KAD1 131156Z 01034G41KT 02/M03 A2991 RMK A01 T00211034  RH  067%=      5-min Rain = 0
KAD1 131157Z 01028G36KT 02/M03 A2991 RMK A01 T00211034  RH  067%=      5-min Rain = 0
KAD1 131158Z 01035G40KT 02/M04 A2991 RMK A01 T00211035  RH  067%=      5-min Rain = 0
KAD1 131159Z 01029G36KT 02/M04 A2991 RMK A01 T00211035  RH  067%=      5-min Rain = 0
KAD1 131200Z 00028G33KT 02/M04 A2992 RMK A01 T00211035  RH  067%=      5-min Rain = 0
KAD1 131201Z 01029G36KT 02/M04 A2992 RMK A01 T00201035  RH  067%=      5-min Rain = 0
KAD1 131202Z 01027G35KT 02/M04 A2992 RMK A01 T00201035  RH  067%=      5-min Rain = 0
KAD1 131203Z 01029G36KT 02/M04 A2991 RMK A01 T00201035  RH  067%=      5-min Rain = 0
KAD1 131204Z 01032G39KT 02/M04 A2992 RMK A01 T00201036  RH  067%=      5-min Rain = 0
KAD1 131205Z 01029G38KT 02/M04 A2992 RMK A01 T00201036  RH  067%=      5-min Rain = 0
KAD1 131206Z 01033G38KT 02/M04 A2992 RMK A01 T00201037  RH  066%=      5-min Rain = 0
KAD1 131207Z 01032G37KT 02/M04 A2992 RMK A01 T00201037  RH  066%=      5-min Rain = 0
KAD1 131208Z 01034G39KT 02/M04 A2992 RMK A01 T00201038  RH  065%=      5-min Rain = 0
KAD1 131209Z 01032G39KT 02/M04 A2992 RMK A01 T00201039  RH  065%=      5-min Rain = 0
KAD1 131210Z 01033G39KT 02/M04 A2992 RMK A01 T00191039  RH  065%=      5-min Rain = 0
KAD1 131211Z 01031KT 02/M04 A2992 RMK A01 T00191039  RH  065%=      5-min Rain = 0
KAD1 131212Z 01028G37KT 02/M04 A2992 RMK A01 T00191039  RH  065%=      5-min Rain = 0
KAD1 131213Z 01029G35KT 02/M04 A2992 RMK A01 T00181039  RH  066%=      5-min Rain = 0
KAD1 131214Z 01029G35KT 02/M04 A2992 RMK A01 T00181039  RH  066%=      5-min Rain = 0
KAD1 131215Z 01034G39KT 02/M04 A2992 RMK A01 T00181039  RH  066%=      5-min Rain = 0
KAD1 131216Z 01034G41KT 02/M04 A2992 RMK A01 T00181039  RH  066%=      5-min Rain = 0
KAD1 131217Z 01033KT 02/M04 A2992 RMK A01 T00181040  RH  066%=      5-min Rain = 0
KAD1 131218Z 01034G40KT 02/M04 A2992 RMK A01 T00181040  RH  066%=      5-min Rain = 0
KAD1 131219Z 01035G43KT 02/M04 A2992 RMK A01 T00181041  RH  065%=      5-min Rain = 0
KAD1 131220Z 02030G36KT 02/M04 A2992 RMK A01 T00181041  RH  065%=      5-min Rain = 0
KAD1 131221Z 02029KT 02/M04 A2992 RMK A01 T00181041  RH  065%=      5-min Rain = 0
KAD1 131222Z 02029G36KT 02/M04 A2993 RMK A01 T00171041  RH  065%=      5-min Rain = 0
KAD1 131223Z 02032G37KT 02/M04 A2992 RMK A01 T00171042  RH  065%=      5-min Rain = 0
KAD1 131224Z 01034G39KT 02/M04 A2993 RMK A01 T00171042  RH  065%=      5-min Rain = 0
KAD1 131225Z 01035G42KT 02/M04 A2993 RMK A01 T00171043  RH  064%=      5-min Rain = 0
KAD1 131226Z 02030G37KT 02/M04 A2993 RMK A01 T00171043  RH  064%=      5-min Rain = 0
KAD1 131227Z 02031G36KT 02/M04 A2993 RMK A01 T00171044  RH  064%=      5-min Rain = 0
KAD1 131228Z 01032G40KT 02/M04 A2993 RMK A01 T00171044  RH  064%=      5-min Rain = 0
KAD1 131229Z 01028G34KT 02/M04 A2993 RMK A01 T00171044  RH  064%=      5-min Rain = 0
KAD1 131230Z 02031G37KT 02/M05 A2993 RMK A01 T00171045  RH  063%=      5-min Rain = 0
KAD1 131231Z 02032G38KT 02/M05 A2993 RMK A01 T00171045  RH  063%=      5-min Rain = 0
KAD1 131232Z 01035G41KT 02/M05 A2993 RMK A01 T00181046  RH  063%=      5-min Rain = 0
KAD1 131233Z 01034G40KT 02/M05 A2993 RMK A01 T00171047  RH  062%=      5-min Rain = 0
KAD1 131234Z 02034G40KT 02/M05 A2993 RMK A01 T00171048  RH  062%=      5-min Rain = 0
KAD1 131235Z 02027G32KT 02/M05 A2993 RMK A01 T00171048  RH  062%=      5-min Rain = 0
KAD1 131236Z 01031G38KT 02/M05 A2994 RMK A01 T00171049  RH  061%=      5-min Rain = 0
KAD1 131237Z 02034G43KT 02/M05 A2993 RMK A01 T00181050  RH  061%=      5-min Rain = 0
KAD1 131238Z 02030G35KT 02/M05 A2994 RMK A01 T00181050  RH  060%=      5-min Rain = 0
KAD1 131239Z 02030KT 02/M05 A2994 RMK A01 T00181050  RH  061%=      5-min Rain = 0
KAD1 131240Z 02027KT 02/M05 A2994 RMK A01 T00181050  RH  061%=      5-min Rain = 0
KAD1 131241Z 01026G32KT 02/M05 A2994 RMK A01 T00181050  RH  061%=      5-min Rain = 0
KAD1 131242Z 02027G34KT 02/M05 A2994 RMK A01 T00181051  RH  060%=      5-min Rain = 0
KAD1 131243Z 01032G38KT 02/M05 A2995 RMK A01 T00181051  RH  060%=      5-min Rain = 0
KAD1 131244Z 02034KT 02/M05 A2994 RMK A01 T00181052  RH  060%=      5-min Rain = 0
KAD1 131245Z 02031G38KT 02/M05 A2995 RMK A01 T00181053  RH  059%=      5-min Rain = 0
KAD1 131246Z 01027G36KT 02/M05 A2995 RMK A01 T00191053  RH  059%=      5-min Rain = 0
KAD1 131247Z 02027G32KT 02/M05 A2995 RMK A01 T00191053  RH  059%=      5-min Rain = 0
KAD1 131248Z 02029KT 02/M05 A2995 RMK A01 T00191053  RH  059%=      5-min Rain = 0
KAD1 131249Z 01027G33KT 02/M05 A2995 RMK A01 T00181054  RH  059%=      5-min Rain = 0
KAD1 131250Z 01030KT 02/M05 A2995 RMK A01 T00191054  RH  058%=      5-min Rain = 0
KAD1 131251Z 01028KT 02/M06 A2996 RMK A01 T00191056  RH  058%=      5-min Rain = 0
KAD1 131252Z 01030KT 02/M06 A2996 RMK A01 T00181056  RH  058%=      5-min Rain = 0
KAD1 131253Z 01028G33KT 02/M06 A2996 RMK A01 T00181056  RH  058%=      5-min Rain = 0
KAD1 131254Z 02031G37KT 02/M06 A2996 RMK A01 T00191057  RH  057%=      5-min Rain = 0
KAD1 131255Z 02035G42KT 02/M06 A2995 RMK A01 T00191058  RH  056%=      5-min Rain = 0
KAD1 131256Z 01026G31KT 02/M06 A2996 RMK A01 T00201059  RH  056%=      5-min Rain = 0
KAD1 131257Z 01027G32KT 02/M06 A2996 RMK A01 T00201059  RH  056%=      5-min Rain = 0
KAD1 131258Z 01026G33KT 02/M06 A2996 RMK A01 T00201059  RH  056%=      5-min Rain = 0
KAD1 131259Z 02027KT 02/M06 A2996 RMK A01 T00201059  RH  056%=      5-min Rain = 0
KAD1 131300Z 01027G32KT 02/M06 A2996 RMK A01 T00201059  RH  056%=      5-min Rain = 0
KAD1 131301Z 01028G36KT 02/M06 A2996 RMK A01 T00201060  RH  055%=      5-min Rain = 0
KAD1 131302Z 01029G35KT 02/M06 A2997 RMK A01 T00201061  RH  055%=      5-min Rain = 0
KAD1 131303Z 02025G33KT 02/M06 A2997 RMK A01 T00201062  RH  055%=      5-min Rain = 0
KAD1 131304Z 01030G35KT 02/M06 A2996 RMK A01 T00201062  RH  055%=      5-min Rain = 0
KAD1 131305Z 01032KT 02/M06 A2997 RMK A01 T00201063  RH  054%=      5-min Rain = 0
KAD1 131306Z 01031KT 02/M06 A2997 RMK A01 T00211064  RH  053%=      5-min Rain = 0
KAD1 131307Z 01031G36KT 02/M07 A2997 RMK A01 T00211065  RH  053%=      5-min Rain = 0
KAD1 131308Z 02028G40KT 02/M07 A2997 RMK A01 T00211066  RH  053%=      5-min Rain = 0
KAD1 131309Z 02035KT 02/M07 A2997 RMK A01 T00211066  RH  052%=      5-min Rain = 0
KAD1 131310Z 02034G42KT 02/M07 A2997 RMK A01 T00211067  RH  052%=      5-min Rain = 0
KAD1 131311Z 01030G36KT 02/M07 A2997 RMK A01 T00221067  RH  052%=      5-min Rain = 0
KAD1 131312Z 02032G37KT 02/M07 A2997 RMK A01 T00221067  RH  052%=      5-min Rain = 0
KAD1 131313Z 01030KT 02/M07 A2997 RMK A01 T00221068  RH  051%=      5-min Rain = 0
KAD1 131314Z 01032KT 02/M07 A2998 RMK A01 T00221069  RH  051%=      5-min Rain = 0
KAD1 131315Z 02031G38KT 02/M07 A2998 RMK A01 T00221069  RH  051%=      5-min Rain = 0
KAD1 131316Z 01030G36KT 02/M07 A2998 RMK A01 T00221069  RH  051%=      5-min Rain = 0
KAD1 131317Z 02035G41KT 02/M07 A2997 RMK A01 T00221070  RH  051%=      5-min Rain = 0
KAD1 131318Z 01033KT 02/M07 A2998 RMK A01 T00221071  RH  050%=      5-min Rain = 0
KAD1 131319Z 01032G39KT 02/M07 A2998 RMK A01 T00221071  RH  050%=      5-min Rain = 0
KAD1 131320Z 01034G39KT 02/M07 A2998 RMK A01 T00221072  RH  050%=      5-min Rain = 0
KAD1 131321Z 01030G36KT 02/M07 A2998 RMK A01 T00231072  RH  049%=      5-min Rain = 0
KAD1 131322Z 01030G36KT 02/M07 A2998 RMK A01 T00231072  RH  049%=      5-min Rain = 0
KAD1 131323Z 01024G29KT 02/M07 A2999 RMK A01 T00231072  RH  050%=      5-min Rain = 0
KAD1 131324Z 01032KT 02/M07 A2998 RMK A01 T00221072  RH  050%=      5-min Rain = 0
KAD1 131325Z 01032KT 02/M07 A2998 RMK A01 T00221073  RH  049%=      5-min Rain = 0
KAD1 131326Z 01033G41KT 02/M07 A2998 RMK A01 T00221073  RH  049%=      5-min Rain = 0
KAD1 131327Z 01030G38KT 02/M07 A2999 RMK A01 T00221074  RH  049%=      5-min Rain = 0
KAD1 131328Z 01028G35KT 02/M08 A2999 RMK A01 T00221075  RH  049%=      5-min Rain = 0
KAD1 131329Z 01025G30KT 02/M07 A2999 RMK A01 T00221074  RH  049%=      5-min Rain = 0
KAD1 131330Z 02027G32KT 02/M07 A2999 RMK A01 T00221074  RH  049%=      5-min Rain = 0
KAD1 131331Z 01031G38KT 02/M08 A2999 RMK A01 T00221076  RH  048%=      5-min Rain = 0
KAD1 131332Z 01026G32KT 02/M08 A2999 RMK A01 T00231076  RH  048%=      5-min Rain = 0
KAD1 131333Z 01028KT 02/M08 A2999 RMK A01 T00231076  RH  048%=      5-min Rain = 0
KAD1 131334Z 01026G32KT 02/M08 A2999 RMK A01 T00231076  RH  048%=      5-min Rain = 0
KAD1 131335Z 01029G36KT 02/M08 A2999 RMK A01 T00231076  RH  048%=      5-min Rain = 0
KAD1 131336Z 01029G34KT 02/M08 A2999 RMK A01 T00231077  RH  048%=      5-min Rain = 0
KAD1 131337Z 00031G36KT 02/M08 A2999 RMK A01 T00231077  RH  047%=      5-min Rain = 0
KAD1 131338Z 01027KT 02/M08 A2999 RMK A01 T00231078  RH  047%=      5-min Rain = 0
KAD1 131339Z 01026KT 02/M08 A2999 RMK A01 T00221078  RH  047%=      5-min Rain = 0
KAD1 131340Z 02028G33KT 02/M08 A2999 RMK A01 T00221078  RH  048%=      5-min Rain = 0
KAD1 131341Z 01027KT 02/M08 A30 RMK A01 T00221078  RH  047%=      5-min Rain = 0
KAD1 131342Z 01028KT 02/M08 A30 RMK A01 T00231079  RH  047%=      5-min Rain = 0
KAD1 131343Z 02033G41KT 02/M08 A2999 RMK A01 T00221081  RH  047%=      5-min Rain = 0
KAD1 131344Z 01031G37KT 02/M08 A2999 RMK A01 T00221082  RH  046%=      5-min Rain = 0
KAD1 131345Z 01035G42KT 02/M08 A30 RMK A01 T00231082  RH  046%=      5-min Rain = 0
KAD1 131346Z 01029KT 02/M08 A30 RMK A01 T00231082  RH  046%=      5-min Rain = 0
KAD1 131347Z 01026KT 02/M08 A30 RMK A01 T00221082  RH  046%=      5-min Rain = 0
KAD1 131348Z 00028G36KT 02/M08 A30 RMK A01 T00221081  RH  046%=      5-min Rain = 0
KAD1 131349Z 00031G36KT 02/M08 A30 RMK A01 T00221082  RH  046%=      5-min Rain = 0
KAD1 131350Z 01028G33KT 02/M08 A30 RMK A01 T00221082  RH  046%=      5-min Rain = 0
KAD1 131351Z 01029G34KT 02/M08 A30 RMK A01 T00221083  RH  046%=      5-min Rain = 0
KAD1 131352Z 01028G40KT 02/M08 A30 RMK A01 T00221083  RH  046%=      5-min Rain = 0
KAD1 131353Z 00032G38KT 02/M08 A30 RMK A01 T00221083  RH  046%=      5-min Rain = 0
KAD1 131354Z 01032G40KT 02/M08 A30 RMK A01 T00221084  RH  046%=      5-min Rain = 0
KAD1 131355Z 01032G41KT 02/M08 A3001 RMK A01 T00221084  RH  046%=      5-min Rain = 0
KAD1 131356Z 01030G39KT 02/M08 A30 RMK A01 T00221084  RH  046%=      5-min Rain = 0
KAD1 131357Z 01029G37KT 02/M08 A3001 RMK A01 T00211084  RH  046%=      5-min Rain = 0
KAD1 131358Z 01030G35KT 02/M09 A3001 RMK A01 T00211085  RH  045%=      5-min Rain = 0
KAD1 131359Z 01027G32KT 02/M09 A3001 RMK A01 T00211085  RH  045%=      5-min Rain = 0
KAD1 131400Z 01033KT 02/M09 A3001 RMK A01 T00211085  RH  045%=      5-min Rain = 0
KAD1 131401Z 01032G37KT 02/M09 A3001 RMK A01 T00211086  RH  045%=      5-min Rain = 0
KAD1 131402Z 01027G34KT 02/M09 A3001 RMK A01 T00211086  RH  045%=      5-min Rain = 0
KAD1 131403Z 01030G36KT 02/M09 A3001 RMK A01 T00211085  RH  045%=      5-min Rain = 0
KAD1 131404Z 01031G37KT 02/M09 A3001 RMK A01 T00211085  RH  045%=      5-min Rain = 0
KAD1 131405Z 01032G38KT 02/M09 A3001 RMK A01 T00211086  RH  045%=      5-min Rain = 0
KAD1 131406Z 01034G41KT 02/M09 A3001 RMK A01 T00211087  RH  045%=      5-min Rain = 0
KAD1 131407Z 01036G44KT 02/M09 A3001 RMK A01 T00211087  RH  045%=      5-min Rain = 0
KAD1 131408Z 01033G42KT 02/M09 A3002 RMK A01 T00201088  RH  045%=      5-min Rain = 0
KAD1 131409Z 01029G36KT 02/M09 A3001 RMK A01 T00201087  RH  045%=      5-min Rain = 0
KAD1 131410Z 01029G35KT 02/M09 A3002 RMK A01 T00201087  RH  045%=      5-min Rain = 0
KAD1 131411Z 01032G41KT 02/M09 A3002 RMK A01 T00201087  RH  045%=      5-min Rain = 0
KAD1 131412Z 01038G45KT 02/M09 A3002 RMK A01 T00201088  RH  045%=      5-min Rain = 0
KAD1 131413Z 01028G34KT 02/M09 A3002 RMK A01 T00201089  RH  045%=      5-min Rain = 0
KAD1 131414Z 01029G36KT 02/M09 A3002 RMK A01 T00201088  RH  045%=      5-min Rain = 0
KAD1 131415Z 01027KT 02/M09 A3002 RMK A01 T00201088  RH  045%=      5-min Rain = 0
KAD1 131416Z 01033G40KT 02/M09 A3002 RMK A01 T00201088  RH  045%=      5-min Rain = 0
KAD1 131417Z 01032G41KT 02/M09 A3002 RMK A01 T00201089  RH  044%=      5-min Rain = 0
KAD1 131418Z 01038G47KT 02/M09 A3002 RMK A01 T00201090  RH  044%=      5-min Rain = 0
KAD1 131419Z 01036G44KT 02/M09 A3002 RMK A01 T00211090  RH  044%=      5-min Rain = 0
KAD1 131420Z 01032G41KT 02/M09 A3002 RMK A01 T00201091  RH  044%=      5-min Rain = 0
KAD1 131421Z 02037G44KT 02/M09 A3002 RMK A01 T00211090  RH  044%=      5-min Rain = 0
KAD1 131422Z 02035G40KT 02/M09 A3002 RMK A01 T00201091  RH  044%=      5-min Rain = 0
KAD1 131423Z 01031G36KT 02/M09 A3003 RMK A01 T00201091  RH  044%=      5-min Rain = 0
KAD1 131424Z 02035G44KT 02/M09 A3002 RMK A01 T00201091  RH  044%=      5-min Rain = 0
KAD1 131425Z 01033G42KT 02/M09 A3003 RMK A01 T00201091  RH  043%=      5-min Rain = 0
KAD1 131426Z 02031G39KT 02/M09 A3003 RMK A01 T00201091  RH  044%=      5-min Rain = 0
KAD1 131427Z 01034G41KT 02/M09 A3003 RMK A01 T00201091  RH  044%=      5-min Rain = 0
KAD1 131428Z 01031G41KT 02/M09 A3003 RMK A01 T00201091  RH  043%=      5-min Rain = 0
KAD1 131429Z 01033KT 02/M09 A3003 RMK A01 T00201091  RH  043%=      5-min Rain = 0
KAD1 131430Z 01030G37KT 02/M09 A3003 RMK A01 T00201092  RH  043%=      5-min Rain = 0
KAD1 131431Z 01029G35KT 02/M09 A3004 RMK A01 T00201092  RH  043%=      5-min Rain = 0
KAD1 131432Z 01036G43KT 02/M09 A3003 RMK A01 T00201092  RH  043%=      5-min Rain = 0
KAD1 131433Z 01034G39KT 02/M09 A3003 RMK A01 T00201093  RH  043%=      5-min Rain = 0
KAD1 131434Z 02027KT 02/M09 A3004 RMK A01 T00201093  RH  043%=      5-min Rain = 0
KAD1 131435Z 02031KT 02/M09 A3004 RMK A01 T00201092  RH  043%=      5-min Rain = 0
KAD1 131436Z 01031G37KT 02/M09 A3004 RMK A01 T00201093  RH  043%=      5-min Rain = 0
KAD1 131437Z 01028G35KT 02/M09 A3004 RMK A01 T00201093  RH  043%=      5-min Rain = 0
KAD1 131438Z 01029KT 02/M09 A3004 RMK A01 T00201093  RH  043%=      5-min Rain = 0
KAD1 131439Z 01030G35KT 02/M09 A3004 RMK A01 T00211093  RH  043%=      5-min Rain = 0
KAD1 131440Z 01032G37KT 02/M09 A3004 RMK A01 T00201094  RH  043%=      5-min Rain = 0
KAD1 131441Z 02030G35KT 02/M09 A3004 RMK A01 T00201094  RH  043%=      5-min Rain = 0
KAD1 131442Z 01034G44KT 02/M09 A3004 RMK A01 T00211094  RH  042%=      5-min Rain = 0
KAD1 131443Z 02033G41KT 02/M10 A3004 RMK A01 T00211095  RH  042%=      5-min Rain = 0
KAD1 131444Z 01035KT 02/M10 A3004 RMK A01 T00211095  RH  042%=      5-min Rain = 0
KAD1 131445Z 01034G42KT 02/M10 A3004 RMK A01 T00211096  RH  042%=      5-min Rain = 0
KAD1 131446Z 01037KT 02/M10 A3004 RMK A01 T00211097  RH  041%=      5-min Rain = 0
KAD1 131447Z 02035G40KT 02/M10 A3004 RMK A01 T00221097  RH  041%=      5-min Rain = 0
KAD1 131448Z 02032KT 02/M10 A3005 RMK A01 T00221096  RH  041%=      5-min Rain = 0
KAD1 131449Z 02034KT 02/M10 A3005 RMK A01 T00221096  RH  041%=      5-min Rain = 0
KAD1 131450Z 01036G42KT 02/M10 A3005 RMK A01 T00221097  RH  041%=      5-min Rain = 0
KAD1 131451Z 01032G38KT 02/M10 A3005 RMK A01 T00221097  RH  041%=      5-min Rain = 0
KAD1 131452Z 01037G43KT 02/M10 A3005 RMK A01 T00231096  RH  041%=      5-min Rain = 0
KAD1 131453Z 02039G44KT 02/M10 A3005 RMK A01 T00231098  RH  040%=      5-min Rain = 0
KAD1 131454Z 01035G41KT 02/M10 A3005 RMK A01 T00231098  RH  040%=      5-min Rain = 0
KAD1 131455Z 01038G44KT 02/M10 A3005 RMK A01 T00231098  RH  040%=      5-min Rain = 0
KAD1 131456Z 01033G39KT 02/M10 A3005 RMK A01 T00231098  RH  040%=      5-min Rain = 0
KAD1 131457Z 02031KT 02/M10 A3006 RMK A01 T00231098  RH  040%=      5-min Rain = 0
KAD1 131458Z 01033G38KT 02/M10 A3005 RMK A01 T00241098  RH  040%=      5-min Rain = 0
KAD1 131459Z 01036G44KT 02/M10 A3006 RMK A01 T00231098  RH  040%=      5-min Rain = 0
KAD1 131500Z 02039G44KT 02/M10 A3006 RMK A01 T00241098  RH  040%=      5-min Rain = 0
KAD1 131501Z 01038KT 02/M10 A3006 RMK A01 T00241099  RH  040%=      5-min Rain = 0
KAD1 131502Z 01037KT 02/M10 A3006 RMK A01 T00231099  RH  040%=      5-min Rain = 0
KAD1 131503Z 01036G41KT 02/M10 A3006 RMK A01 T00231100  RH  040%=      5-min Rain = 0
KAD1 131504Z 01034G40KT 02/M10 A3006 RMK A01 T00231099  RH  040%=      5-min Rain = 0
KAD1 131505Z 02032G38KT 02/M10 A3006 RMK A01 T00231100  RH  040%=      5-min Rain = 0
KAD1 131506Z 01031KT 02/M10 A3006 RMK A01 T00231099  RH  040%=      5-min Rain = 0
KAD1 131507Z 01033G40KT 02/M10 A3007 RMK A01 T00231098  RH  040%=      5-min Rain = 0
KAD1 131508Z 01032G39KT 02/M10 A3007 RMK A01 T00231099  RH  040%=      5-min Rain = 0
KAD1 131509Z 01036KT 02/M10 A3007 RMK A01 T00231099  RH  040%=      5-min Rain = 0
KAD1 131510Z 01033KT 02/M10 A3007 RMK A01 T00231100  RH  040%=      5-min Rain = 0
KAD1 131511Z 01032KT 02/M10 A3007 RMK A01 T00221100  RH  040%=      5-min Rain = 0
KAD1 131512Z 01031G36KT 02/M10 A3007 RMK A01 T00221099  RH  040%=      5-min Rain = 0
KAD1 131513Z 02035G41KT 02/M10 A3007 RMK A01 T00221099  RH  040%=      5-min Rain = 0
KAD1 131514Z 02032G37KT 02/M10 A3007 RMK A01 T00221100  RH  040%=      5-min Rain = 0
KAD1 131515Z 01033G38KT 02/M10 A3007 RMK A01 T00221100  RH  040%=      5-min Rain = 0
KAD1 131516Z 01032G38KT 02/M10 A3007 RMK A01 T00221100  RH  040%=      5-min Rain = 0
KAD1 131517Z 01033KT 02/M10 A3007 RMK A01 T00221100  RH  040%=      5-min Rain = 0
KAD1 131518Z 01031G37KT 02/M10 A3007 RMK A01 T00231100  RH  040%=      5-min Rain = 0
KAD1 131519Z 01030G35KT 02/M10 A3007 RMK A01 T00231099  RH  040%=      5-min Rain = 0
KAD1 131520Z 01031G36KT 02/M10 A3007 RMK A01 T00231099  RH  040%=      5-min Rain = 0
KAD1 131521Z 01033KT 02/M10 A3007 RMK A01 T00241100  RH  040%=      5-min Rain = 0
KAD1 131522Z 01028G34KT 03/M10 A3007 RMK A01 T00251099  RH  040%=      5-min Rain = 0
KAD1 131523Z 01027G39KT 03/M10 A3007 RMK A01 T00261098  RH  040%=      5-min Rain = 0
KAD1 131524Z 01033G41KT 03/M10 A3007 RMK A01 T00271099  RH  039%=      5-min Rain = 0
KAD1 131525Z 02029G35KT 03/M10 A3007 RMK A01 T00271100  RH  039%=      5-min Rain = 0
KAD1 131526Z 01036KT 03/M10 A3007 RMK A01 T00271100  RH  039%=      5-min Rain = 0
KAD1 131527Z 01032G39KT 03/M10 A3007 RMK A01 T00271101  RH  038%=      5-min Rain = 0
KAD1 131528Z 01036G42KT 03/M10 A3008 RMK A01 T00271101  RH  038%=      5-min Rain = 0
KAD1 131529Z 01034G39KT 03/M10 A3007 RMK A01 T00271101  RH  038%=      5-min Rain = 0
KAD1 131530Z 01033G38KT 03/M10 A3008 RMK A01 T00271101  RH  038%=      5-min Rain = 0
KAD1 131531Z 02032G40KT 03/M10 A3008 RMK A01 T00271101  RH  038%=      5-min Rain = 0
KAD1 131532Z 01029G37KT 03/M10 A3008 RMK A01 T00271100  RH  039%=      5-min Rain = 0
KAD1 131533Z 01036KT 03/M10 A3008 RMK A01 T00281101  RH  038%=      5-min Rain = 0
KAD1 131534Z 01035G41KT 03/M10 A3008 RMK A01 T00271102  RH  038%=      5-min Rain = 0
KAD1 131535Z 01032KT 03/M10 A3008 RMK A01 T00271102  RH  038%=      5-min Rain = 0
KAD1 131536Z 01033G40KT 03/M10 A3008 RMK A01 T00261102  RH  038%=      5-min Rain = 0
KAD1 131537Z 01032G37KT 03/M10 A3008 RMK A01 T00271102  RH  038%=      5-min Rain = 0
KAD1 131538Z 01032KT 03/M10 A3008 RMK A01 T00261103  RH  038%=      5-min Rain = 0
KAD1 131539Z 01030G35KT 03/M10 A3008 RMK A01 T00261102  RH  038%=      5-min Rain = 0
KAD1 131540Z 02028KT 03/M10 A3009 RMK A01 T00251102  RH  039%=      5-min Rain = 0
KAD1 131541Z 01025KT 03/M10 A3009 RMK A01 T00251101  RH  039%=      5-min Rain = 0
KAD1 131542Z 01035G40KT 03/M10 A3009 RMK A01 T00261102  RH  038%=      5-min Rain = 0
KAD1 131543Z 01030G36KT 03/M10 A3009 RMK A01 T00261104  RH  038%=      5-min Rain = 0
KAD1 131544Z 01028G33KT 03/M10 A3009 RMK A01 T00261103  RH  038%=      5-min Rain = 0
KAD1 131545Z 01026G32KT 03/M10 A3009 RMK A01 T00271101  RH  038%=      5-min Rain = 0
KAD1 131546Z 01029G36KT 03/M10 A3009 RMK A01 T00281101  RH  038%=      5-min Rain = 0
KAD1 131547Z 01027G37KT 03/M10 A3009 RMK A01 T00291101  RH  038%=      5-min Rain = 0
KAD1 131548Z 01030G35KT 03/M10 A3009 RMK A01 T00291102  RH  038%=      5-min Rain = 0
KAD1 131549Z 01033G39KT 03/M10 A3009 RMK A01 T00301102  RH  037%=      5-min Rain = 0
KAD1 131550Z 01029G37KT 03/M10 A3009 RMK A01 T00301102  RH  037%=      5-min Rain = 0
KAD1 131551Z 01029G34KT 03/M10 A3009 RMK A01 T00321101  RH  037%=      5-min Rain = 0
KAD1 131552Z 02031G37KT 03/M10 A3009 RMK A01 T00331101  RH  037%=      5-min Rain = 0
KAD1 131553Z 02035G41KT 03/M10 A3009 RMK A01 T00331103  RH  036%=      5-min Rain = 0
KAD1 131554Z 01036KT 03/M10 A3009 RMK A01 T00321104  RH  036%=      5-min Rain = 0
KAD1 131555Z 01035G41KT 03/M10 A3009 RMK A01 T00321104  RH  036%=      5-min Rain = 0
KAD1 131556Z 01033G42KT 03/M10 A3009 RMK A01 T00311104  RH  036%=      5-min Rain = 0
KAD1 131557Z 01031G38KT 03/M10 A301 RMK A01 T00321104  RH  036%=      5-min Rain = 0
KAD1 131558Z 01032G37KT 03/M10 A301 RMK A01 T00331103  RH  036%=      5-min Rain = 0
KAD1 131559Z 01032KT 03/M10 A301 RMK A01 T00341103  RH  036%=      5-min Rain = 0
KAD1 131600Z 01024G29KT 03/M10 A301 RMK A01 T00341104  RH  036%=      5-min Rain = 0
KAD1 131601Z 01031G39KT 04/M10 A301 RMK A01 T00351102  RH  036%=      5-min Rain = 0
KAD1 131602Z 01032G37KT 03/M11 A301 RMK A01 T00331105  RH  036%=      5-min Rain = 0
KAD1 131603Z 01031G37KT 03/M11 A301 RMK A01 T00321105  RH  036%=      5-min Rain = 0
KAD1 131604Z 01030G37KT 03/M11 A301 RMK A01 T00311105  RH  036%=      5-min Rain = 0
KAD1 131605Z 01028G37KT 03/M10 A301 RMK A01 T00321103  RH  036%=      5-min Rain = 0
KAD1 131606Z 01034G41KT 03/M10 A301 RMK A01 T00331103  RH  036%=      5-min Rain = 0
KAD1 131607Z 01036G41KT 03/M10 A301 RMK A01 T00321103  RH  036%=      5-min Rain = 0
KAD1 131608Z 01037KT 03/M11 A301 RMK A01 T00311105  RH  036%=      5-min Rain = 0
KAD1 131609Z 02032G37KT 03/M10 A3011 RMK A01 T00311104  RH  036%=      5-min Rain = 0
KAD1 131610Z 01032KT 03/M10 A3011 RMK A01 T00311104  RH  036%=      5-min Rain = 0
KAD1 131611Z 02036G41KT 03/M10 A3011 RMK A01 T00321103  RH  036%=      5-min Rain = 0
KAD1 131612Z 02030G37KT 03/M10 A3011 RMK A01 T00311104  RH  036%=      5-min Rain = 0
KAD1 131613Z 01029G37KT 03/M10 A3011 RMK A01 T00331101  RH  037%=      5-min Rain = 0
KAD1 131614Z 01031KT 04/M10 A3011 RMK A01 T00351101  RH  036%=      5-min Rain = 0
KAD1 131615Z 01030G37KT 03/M10 A3011 RMK A01 T00341102  RH  036%=      5-min Rain = 0
KAD1 131616Z 01029G36KT 03/M10 A3011 RMK A01 T00341102  RH  036%=      5-min Rain = 0
KAD1 131617Z 00033G38KT 03/M10 A3011 RMK A01 T00341102  RH  036%=      5-min Rain = 0
KAD1 131618Z 01031G37KT 03/M10 A3011 RMK A01 T00331102  RH  036%=      5-min Rain = 0
KAD1 131619Z 01032G39KT 03/M10 A3011 RMK A01 T00331102  RH  037%=      5-min Rain = 0
KAD1 131620Z 01034KT 03/M10 A3011 RMK A01 T00321102  RH  037%=      5-min Rain = 0
KAD1 131621Z 01030G38KT 03/M10 A3011 RMK A01 T00311102  RH  037%=      5-min Rain = 0
KAD1 131622Z 01028G34KT 03/M10 A3011 RMK A01 T00331100  RH  037%=      5-min Rain = 0
KAD1 131623Z 01034G39KT 03/M10 A3012 RMK A01 T00331100  RH  037%=      5-min Rain = 0
KAD1 131624Z 01030G38KT 03/M10 A3011 RMK A01 T00321101  RH  037%=      5-min Rain = 0
KAD1 131625Z 01032KT 03/M10 A3012 RMK A01 T00321099  RH  037%=      5-min Rain = 0
KAD1 131626Z 01033G38KT 03/M10 A3012 RMK A01 T00321099  RH  038%=      5-min Rain = 0
KAD1 131627Z 01033G39KT 03/M10 A3012 RMK A01 T00321099  RH  038%=      5-min Rain = 0
KAD1 131628Z 01028G34KT 03/M10 A3012 RMK A01 T00321099  RH  038%=      5-min Rain = 0
KAD1 131629Z 01028G34KT 03/M10 A3012 RMK A01 T00331097  RH  038%=      5-min Rain = 0
KAD1 131630Z 01027G32KT 04/M10 A3012 RMK A01 T00351097  RH  038%=      5-min Rain = 0
KAD1 131631Z 01029KT 04/M10 A3012 RMK A01 T00361096  RH  037%=      5-min Rain = 0
KAD1 131632Z 01029G36KT 04/M10 A3012 RMK A01 T00351097  RH  037%=      5-min Rain = 0
KAD1 131633Z 01032G38KT 03/M10 A3012 RMK A01 T00341098  RH  037%=      5-min Rain = 0
KAD1 131634Z 36031G42KT 03/M10 A3013 RMK A01 T00321098  RH  038%=      5-min Rain = 0
KAD1 131635Z 01031G36KT 03/M10 A3013 RMK A01 T00321096  RH  038%=      5-min Rain = 0
KAD1 131636Z 01029G34KT 03/M10 A3013 RMK A01 T00321096  RH  038%=      5-min Rain = 0
KAD1 131637Z 00032G40KT 03/M10 A3013 RMK A01 T00311097  RH  039%=      5-min Rain = 0
KAD1 131638Z 00028G35KT 03/M10 A3013 RMK A01 T00301096  RH  039%=      5-min Rain = 0
KAD1 131639Z 01033G42KT 03/M10 A3013 RMK A01 T00311095  RH  039%=      5-min Rain = 0
KAD1 131640Z 02033KT 03/M10 A3013 RMK A01 T00311095  RH  039%=      5-min Rain = 0
KAD1 131641Z 00032KT 03/M10 A3013 RMK A01 T00301095  RH  039%=      5-min Rain = 0
KAD1 131642Z 02030G35KT 03/M09 A3013 RMK A01 T00301094  RH  040%=      5-min Rain = 0
KAD1 131643Z 02028KT 03/M09 A3013 RMK A01 T00301093  RH  040%=      5-min Rain = 0
KAD1 131644Z 02026G33KT 03/M09 A3013 RMK A01 T00331090  RH  040%=      5-min Rain = 0
KAD1 131645Z 01025G30KT 04/M09 A3013 RMK A01 T00351090  RH  039%=      5-min Rain = 0
KAD1 131646Z 01026G37KT 04/M09 A3013 RMK A01 T00361090  RH  039%=      5-min Rain = 0
KAD1 131647Z 02031G36KT 04/M09 A3013 RMK A01 T00351092  RH  039%=      5-min Rain = 0
KAD1 131648Z 01031G41KT 03/M09 A3013 RMK A01 T00341090  RH  040%=      5-min Rain = 0
KAD1 131649Z 01033G42KT 04/M09 A3013 RMK A01 T00351090  RH  040%=      5-min Rain = 0
KAD1 131650Z 01031KT 03/M09 A3013 RMK A01 T00341091  RH  040%=      5-min Rain = 0
KAD1 131651Z 02031KT 03/M09 A3013 RMK A01 T00341090  RH  040%=      5-min Rain = 0
KAD1 131652Z 02034G39KT 04/M09 A3013 RMK A01 T00351090  RH  040%=      5-min Rain = 0
KAD1 131653Z 02034G40KT 04/M09 A3013 RMK A01 T00351090  RH  040%=      5-min Rain = 0
KAD1 131654Z 02027G34KT 04/M09 A3013 RMK A01 T00361088  RH  040%=      5-min Rain = 0
KAD1 131655Z 01035G40KT 04/M09 A3013 RMK A01 T00381087  RH  040%=      5-min Rain = 0
KAD1 131656Z 01032G39KT 04/M09 A3014 RMK A01 T00371089  RH  039%=      5-min Rain = 0
KAD1 131657Z 01032KT 04/M09 A3014 RMK A01 T00361090  RH  039%=      5-min Rain = 0
KAD1 131658Z 01028KT 04/M09 A3013 RMK A01 T00351089  RH  040%=      5-min Rain = 0
KAD1 131659Z 01028KT 04/M09 A3014 RMK A01 T00361087  RH  040%=      5-min Rain = 0
KAD1 131700Z 01033G38KT 04/M09 A3014 RMK A01 T00381087  RH  040%=      5-min Rain = 0
KAD1 131701Z 01032KT 04/M09 A3014 RMK A01 T00371089  RH  040%=      5-min Rain = 0
KAD1 131702Z 02033KT 04/M09 A3014 RMK A01 T00361088  RH  040%=      5-min Rain = 0
KAD1 131703Z 02034G41KT 04/M09 A3014 RMK A01 T00361087  RH  040%=      5-min Rain = 0
KAD1 131704Z 02033G40KT 04/M09 A3014 RMK A01 T00361087  RH  040%=      5-min Rain = 0
KAD1 131705Z 02032KT 04/M09 A3014 RMK A01 T00351087  RH  040%=      5-min Rain = 0
KAD1 131706Z 02030KT 04/M09 A3014 RMK A01 T00361087  RH  040%=      5-min Rain = 0
KAD1 131707Z 00028KT 04/M09 A3014 RMK A01 T00371086  RH  040%=      5-min Rain = 0
KAD1 131708Z 02032G40KT 04/M09 A3014 RMK A01 T00391086  RH  040%=      5-min Rain = 0
KAD1 131709Z 01030G37KT 04/M09 A3014 RMK A01 T00401085  RH  039%=      5-min Rain = 0
KAD1 131710Z 02032KT 04/M09 A3014 RMK A01 T00411086  RH  039%=      5-min Rain = 0
KAD1 131711Z 01034G39KT 04/M09 A3014 RMK A01 T00411087  RH  039%=      5-min Rain = 0
KAD1 131712Z 02029KT 04/M09 A3014 RMK A01 T00411085  RH  039%=      5-min Rain = 0
KAD1 131713Z 01030KT 04/M08 A3014 RMK A01 T00441083  RH  039%=      5-min Rain = 0
KAD1 131714Z 02034KT 04/M09 A3014 RMK A01 T00421086  RH  039%=      5-min Rain = 0
KAD1 131715Z 01028G35KT 04/M09 A3014 RMK A01 T00401086  RH  039%=      5-min Rain = 0
KAD1 131716Z 01027G38KT 04/M08 A3014 RMK A01 T00431083  RH  040%=      5-min Rain = 0
KAD1 131717Z 01031G36KT 05/M08 A3015 RMK A01 T00451084  RH  038%=      5-min Rain = 0
KAD1 131718Z 01030G35KT 04/M09 A3015 RMK A01 T00431086  RH  038%=      5-min Rain = 0
KAD1 131719Z 02029G34KT 04/M08 A3014 RMK A01 T00421084  RH  039%=      5-min Rain = 0
KAD1 131720Z 01029G35KT 04/M08 A3014 RMK A01 T00431083  RH  039%=      5-min Rain = 0
KAD1 131721Z 02027G34KT 04/M08 A3015 RMK A01 T00431084  RH  039%=      5-min Rain = 0
KAD1 131722Z 02031G41KT 04/M08 A3015 RMK A01 T00431084  RH  039%=      5-min Rain = 0
KAD1 131723Z 02033G38KT 04/M09 A3015 RMK A01 T00401088  RH  039%=      5-min Rain = 0
KAD1 131724Z 02032G40KT 04/M09 A3015 RMK A01 T00381089  RH  039%=      5-min Rain = 0
KAD1 131725Z 01029G35KT 04/M09 A3015 RMK A01 T00371087  RH  040%=      5-min Rain = 0
KAD1 131726Z 02028G33KT 04/M09 A3015 RMK A01 T00371088  RH  040%=      5-min Rain = 0
KAD1 131727Z 02031G37KT 04/M09 A3015 RMK A01 T00361088  RH  040%=      5-min Rain = 0
KAD1 131728Z 02032KT 04/M09 A3015 RMK A01 T00351089  RH  040%=      5-min Rain = 0
KAD1 131729Z 01033G40KT 03/M09 A3015 RMK A01 T00341088  RH  040%=      5-min Rain = 0
KAD1 131730Z 02032G38KT 03/M09 A3015 RMK A01 T00341089  RH  040%=      5-min Rain = 0
KAD1 131731Z 01031G37KT 03/M09 A3015 RMK A01 T00341089  RH  040%=      5-min Rain = 0
KAD1 131732Z 02032KT 04/M09 A3015 RMK A01 T00351089  RH  040%=      5-min Rain = 0
KAD1 131733Z 01029KT 04/M09 A3015 RMK A01 T00361089  RH  040%=      5-min Rain = 0
KAD1 131734Z 01029KT 04/M09 A3015 RMK A01 T00371090  RH  039%=      5-min Rain = 0
KAD1 131735Z 01032G37KT 04/M09 A3015 RMK A01 T00401090  RH  038%=      5-min Rain = 0
KAD1 131736Z 01029G34KT 04/M09 A3015 RMK A01 T00411091  RH  038%=      5-min Rain = 0
KAD1 131737Z 36032G38KT 04/M09 A3015 RMK A01 T00421090  RH  038%=      5-min Rain = 0
KAD1 131738Z 00030KT 04/M09 A3015 RMK A01 T00411091  RH  038%=      5-min Rain = 0
KAD1 131739Z 00032G39KT 04/M09 A3015 RMK A01 T00411092  RH  037%=      5-min Rain = 0
KAD1 131740Z 00028G34KT 04/M09 A3015 RMK A01 T00411091  RH  037%=      5-min Rain = 0
KAD1 131741Z 01029KT 04/M09 A3015 RMK A01 T00421091  RH  037%=      5-min Rain = 0
KAD1 131742Z 01028KT 04/M09 A3015 RMK A01 T00421093  RH  037%=      5-min Rain = 0
KAD1 131743Z 36024G31KT 04/M09 A3015 RMK A01 T00421093  RH  037%=      5-min Rain = 0
KAD1 131744Z 00025G30KT 04/M09 A3015 RMK A01 T00441090  RH  037%=      5-min Rain = 0
KAD1 131745Z 01023KT 05/M09 A3015 RMK A01 T00451089  RH  037%=      5-min Rain = 0
KAD1 131746Z 00022G27KT 05/M09 A3015 RMK A01 T00471087  RH  037%=      5-min Rain = 0
KAD1 131747Z 01028G33KT 05/M09 A3015 RMK A01 T00491087  RH  037%=      5-min Rain = 0
KAD1 131748Z 00027G32KT 05/M09 A3015 RMK A01 T00481090  RH  036%=      5-min Rain = 0
KAD1 131749Z 00028KT 05/M09 A3015 RMK A01 T00471091  RH  036%=      5-min Rain = 0
KAD1 131750Z 01027KT 04/M09 A3015 RMK A01 T00441093  RH  036%=      5-min Rain = 0
KAD1 131751Z 36025G32KT 04/M09 A3015 RMK A01 T00441091  RH  037%=      5-min Rain = 0
KAD1 131752Z 01027G32KT 05/M09 A3015 RMK A01 T00461090  RH  037%=      5-min Rain = 0
KAD1 131753Z 00024G29KT 05/M09 A3015 RMK A01 T00461091  RH  036%=      5-min Rain = 0
KAD1 131754Z 01026G35KT 05/M09 A3015 RMK A01 T00471090  RH  036%=      5-min Rain = 0
KAD1 131755Z 02027G32KT 05/M09 A3015 RMK A01 T00481089  RH  036%=      5-min Rain = 0
KAD1 131756Z 02030KT 05/M09 A3015 RMK A01 T00481091  RH  036%=      5-min Rain = 0
KAD1 131757Z 01029KT 05/M09 A3015 RMK A01 T00481092  RH  035%=      5-min Rain = 0
KAD1 131758Z 01028G35KT 05/M09 A3015 RMK A01 T00471094  RH  035%=      5-min Rain = 0
KAD1 131759Z 01029G34KT 05/M09 A3015 RMK A01 T00491094  RH  035%=      5-min Rain = 0
KAD1 131800Z 02030KT 05/M10 A3015 RMK A01 T00481096  RH  034%=      5-min Rain = 0
KAD1 131801Z 01027G34KT 05/M10 A3015 RMK A01 T00471097  RH  035%=      5-min Rain = 0
KAD1 131802Z 02028G34KT 05/M10 A3015 RMK A01 T00471095  RH  035%=      5-min Rain = 0
KAD1 131803Z 01028G33KT 05/M10 A3015 RMK A01 T00481096  RH  034%=      5-min Rain = 0
KAD1 131804Z 02029KT 05/M10 A3014 RMK A01 T00481096  RH  035%=      5-min Rain = 0
KAD1 131805Z 02029KT 05/M10 A3015 RMK A01 T00481096  RH  034%=      5-min Rain = 0
KAD1 131806Z 02027KT 05/M10 A3014 RMK A01 T00481096  RH  034%=      5-min Rain = 0
KAD1 131807Z 02028G33KT 05/M10 A3014 RMK A01 T00491096  RH  034%=      5-min Rain = 0
KAD1 131808Z 02028KT 05/M10 A3014 RMK A01 T00491095  RH  034%=      5-min Rain = 0
KAD1 131809Z 01028KT 05/M10 A3014 RMK A01 T00511095  RH  034%=      5-min Rain = 0
KAD1 131810Z 02031G37KT 05/M10 A3014 RMK A01 T00511099  RH  033%=      5-min Rain = 0
KAD1 131811Z 01030G35KT 05/M10 A3014 RMK A01 T00501101  RH  033%=      5-min Rain = 0
KAD1 131812Z 01026G31KT 05/M10 A3014 RMK A01 T00511101  RH  032%=      5-min Rain = 0
KAD1 131813Z 02027G32KT 05/M10 A3014 RMK A01 T00541099  RH  032%=      5-min Rain = 0
KAD1 131814Z 01027KT 05/M10 A3014 RMK A01 T00541101  RH  032%=      5-min Rain = 0
KAD1 131815Z 01024G31KT 05/M10 A3014 RMK A01 T00531102  RH  032%=      5-min Rain = 0
KAD1 131816Z 00027KT 06/M11 A3014 RMK A01 T00561107  RH  030%=      5-min Rain = 0
KAD1 131817Z 00029G39KT 06/M11 A3014 RMK A01 T00571109  RH  029%=      5-min Rain = 0
KAD1 131818Z 36031G36KT 06/M11 A3014 RMK A01 T00561114  RH  028%=      5-min Rain = 0
KAD1 131819Z 36029G34KT 05/M12 A3014 RMK A01 T00531117  RH  028%=      5-min Rain = 0
KAD1 131820Z 00026G32KT 05/M12 A3014 RMK A01 T00521118  RH  028%=      5-min Rain = 0
KAD1 131821Z 00032G39KT 05/M12 A3014 RMK A01 T00541118  RH  028%=      5-min Rain = 0
KAD1 131822Z 00034G39KT 05/M12 A3014 RMK A01 T00541120  RH  027%=      5-min Rain = 0
KAD1 131823Z 01034G39KT 05/M12 A3014 RMK A01 T00531119  RH  028%=      5-min Rain = 0
KAD1 131824Z 01031G37KT 05/M12 A3014 RMK A01 T00521117  RH  028%=      5-min Rain = 0
KAD1 131825Z 01027KT 05/M11 A3014 RMK A01 T00541112  RH  029%=      5-min Rain = 0
KAD1 131826Z 01026G31KT 06/M11 A3014 RMK A01 T00571111  RH  029%=      5-min Rain = 0
KAD1 131827Z 36026G36KT 06/M12 A3014 RMK A01 T00571116  RH  028%=      5-min Rain = 0
KAD1 131828Z 36029G34KT 06/M12 A3014 RMK A01 T00591117  RH  027%=      5-min Rain = 0
KAD1 131829Z 01033KT 06/M12 A3014 RMK A01 T00581120  RH  027%=      5-min Rain = 0
KAD1 131830Z 01031G37KT 06/M12 A3014 RMK A01 T00571120  RH  027%=      5-min Rain = 0
KAD1 131831Z 01036G41KT 06/M12 A3014 RMK A01 T00571121  RH  027%=      5-min Rain = 0
KAD1 131832Z 01032G37KT 06/M12 A3014 RMK A01 T00551124  RH  026%=      5-min Rain = 0
KAD1 131833Z 01030G37KT 05/M12 A3014 RMK A01 T00541123  RH  027%=      5-min Rain = 0
KAD1 131834Z 00030G35KT 06/M12 A3013 RMK A01 T00551122  RH  027%=      5-min Rain = 0
KAD1 131835Z 36028KT 06/M12 A3013 RMK A01 T00561122  RH  027%=      5-min Rain = 0
KAD1 131836Z 00029KT 06/M12 A3013 RMK A01 T00571121  RH  026%=      5-min Rain = 0
KAD1 131837Z 01025G30KT 06/M12 A3013 RMK A01 T00571122  RH  026%=      5-min Rain = 0
KAD1 131838Z 01030G36KT 06/M12 A3013 RMK A01 T00591120  RH  026%=      5-min Rain = 0
KAD1 131839Z 01030G35KT 06/M12 A3013 RMK A01 T00581124  RH  026%=      5-min Rain = 0
KAD1 131840Z 01033G38KT 06/M12 A3013 RMK A01 T00581124  RH  026%=      5-min Rain = 0
KAD1 131841Z 01035G41KT 06/M13 A3013 RMK A01 T00581127  RH  025%=      5-min Rain = 0
KAD1 131842Z 01032G37KT 06/M13 A3013 RMK A01 T00571128  RH  025%=      5-min Rain = 0
KAD1 131843Z 01030G39KT 06/M13 A3013 RMK A01 T00581127  RH  025%=      5-min Rain = 0
KAD1 131844Z 00034KT 06/M13 A3013 RMK A01 T00591128  RH  025%=      5-min Rain = 0
KAD1 131845Z 00032KT 06/M13 A3013 RMK A01 T00581130  RH  024%=      5-min Rain = 0
KAD1 131846Z 00028G33KT 06/M13 A3013 RMK A01 T00591130  RH  024%=      5-min Rain = 0
KAD1 131847Z 01029KT 06/M13 A3013 RMK A01 T00581130  RH  024%=      5-min Rain = 0
KAD1 131848Z 36028G34KT 06/M13 A3013 RMK A01 T00581130  RH  024%=      5-min Rain = 0
KAD1 131849Z 00035G42KT 06/M13 A3013 RMK A01 T00591132  RH  024%=      5-min Rain = 0
KAD1 131850Z 00033G38KT 06/M14 A3013 RMK A01 T00581136  RH  023%=      5-min Rain = 0
KAD1 131851Z 00030G36KT 06/M14 A3013 RMK A01 T00581137  RH  023%=      5-min Rain = 0
KAD1 131852Z 01031G37KT 06/M14 A3013 RMK A01 T00601137  RH  023%=      5-min Rain = 0
KAD1 131853Z 01032G41KT 06/M14 A3012 RMK A01 T00601137  RH  023%=      5-min Rain = 0
KAD1 131854Z 01033G40KT 06/M14 A3013 RMK A01 T00591138  RH  023%=      5-min Rain = 0
KAD1 131855Z 01032G37KT 06/M14 A3013 RMK A01 T00581138  RH  023%=      5-min Rain = 0
KAD1 131856Z 00031G36KT 06/M14 A3013 RMK A01 T00591137  RH  023%=      5-min Rain = 0
KAD1 131857Z 36033G39KT 06/M14 A3013 RMK A01 T00581138  RH  023%=      5-min Rain = 0
KAD1 131858Z 00032G37KT 06/M14 A3012 RMK A01 T00581139  RH  023%=      5-min Rain = 0
KAD1 131859Z 00035KT 06/M14 A3013 RMK A01 T00581139  RH  023%=      5-min Rain = 0
KAD1 131900Z 01030G38KT 06/M14 A3013 RMK A01 T00581138  RH  023%=      5-min Rain = 0
KAD1 131901Z 01031G38KT 06/M14 A3013 RMK A01 T00601137  RH  023%=      5-min Rain = 0
KAD1 131902Z 01035G43KT 06/M14 A3012 RMK A01 T00601139  RH  022%=      5-min Rain = 0
KAD1 131903Z 01032G37KT 06/M14 A3013 RMK A01 T00601140  RH  022%=      5-min Rain = 0
KAD1 131904Z 02032G40KT 06/M14 A3012 RMK A01 T00611138  RH  022%=      5-min Rain = 0
KAD1 131905Z 01032G37KT 06/M14 A3012 RMK A01 T00611138  RH  022%=      5-min Rain = 0
KAD1 131906Z 00034G41KT 06/M14 A3013 RMK A01 T00601142  RH  022%=      5-min Rain = 0
KAD1 131907Z 01029G34KT 06/M15 A3013 RMK A01 T00581145  RH  022%=      5-min Rain = 0
KAD1 131908Z 36028G40KT 06/M14 A3013 RMK A01 T00601141  RH  022%=      5-min Rain = 0
KAD1 131909Z 36034KT 06/M14 A3013 RMK A01 T00631140  RH  022%=      5-min Rain = 0
KAD1 131910Z 00033KT 06/M14 A3013 RMK A01 T00611141  RH  022%=      5-min Rain = 0
KAD1 131911Z 01025G31KT 06/M14 A3013 RMK A01 T00591139  RH  023%=      5-min Rain = 0
KAD1 131912Z 02026G37KT 06/M13 A3013 RMK A01 T00641133  RH  023%=      5-min Rain = 0
KAD1 131913Z 01029G38KT 07/M14 A3013 RMK A01 T00671135  RH  022%=      5-min Rain = 0
KAD1 131914Z 01034G39KT 07/M14 A3013 RMK A01 T00661139  RH  022%=      5-min Rain = 0
KAD1 131915Z 01033G39KT 06/M14 A3013 RMK A01 T00631144  RH  021%=      5-min Rain = 0
KAD1 131916Z 01030KT 06/M14 A3013 RMK A01 T00611144  RH  021%=      5-min Rain = 0
KAD1 131917Z 01033G39KT 06/M14 A3013 RMK A01 T00621141  RH  022%=      5-min Rain = 0
KAD1 131918Z 00034G40KT 06/M14 A3013 RMK A01 T00611141  RH  022%=      5-min Rain = 0
KAD1 131919Z 36031G37KT 06/M14 A3013 RMK A01 T00591143  RH  022%=      5-min Rain = 0
KAD1 131920Z 00032G39KT 06/M14 A3013 RMK A01 T00591140  RH  022%=      5-min Rain = 0
KAD1 131921Z 00036G41KT 06/M14 A3013 RMK A01 T00591142  RH  022%=      5-min Rain = 0
KAD1 131922Z 00035G42KT 06/M14 A3013 RMK A01 T00591142  RH  022%=      5-min Rain = 0
KAD1 131923Z 36033G39KT 06/M14 A3013 RMK A01 T00591142  RH  022%=      5-min Rain = 0
KAD1 131924Z 01030G36KT 06/M14 A3013 RMK A01 T00601141  RH  022%=      5-min Rain = 0
KAD1 131925Z 36028G33KT 06/M14 A3013 RMK A01 T00621140  RH  022%=      5-min Rain = 0
KAD1 131926Z 35030G37KT 06/M14 A3013 RMK A01 T00621140  RH  022%=      5-min Rain = 0
KAD1 131927Z 36030G38KT 06/M14 A3013 RMK A01 T00611140  RH  022%=      5-min Rain = 0
KAD1 131928Z 01025KT 06/M14 A3013 RMK A01 T00631136  RH  022%=      5-min Rain = 0
KAD1 131929Z 01027KT 07/M13 A3013 RMK A01 T00661133  RH  022%=      5-min Rain = 0
KAD1 131930Z 01025KT 07/M14 A3013 RMK A01 T00661135  RH  022%=      5-min Rain = 0
KAD1 131931Z 01023G28KT 07/M13 A3013 RMK A01 T00671134  RH  022%=      5-min Rain = 0
KAD1 131932Z 01023G29KT 07/M13 A3013 RMK A01 T00691132  RH  022%=      5-min Rain = 0
KAD1 131933Z 35027G33KT 07/M14 A3013 RMK A01 T00701136  RH  022%=      5-min Rain = 0
KAD1 131934Z 00026G32KT 07/M14 A3013 RMK A01 T00671141  RH  021%=      5-min Rain = 0
KAD1 131935Z 01030G35KT 07/M14 A3013 RMK A01 T00671141  RH  021%=      5-min Rain = 0
KAD1 131936Z 36032G39KT 07/M14 A3013 RMK A01 T00651143  RH  021%=      5-min Rain = 0
KAD1 131937Z 36029KT 06/M14 A3013 RMK A01 T00631144  RH  021%=      5-min Rain = 0
KAD1 131938Z 36031G36KT 06/M14 A3013 RMK A01 T00631142  RH  021%=      5-min Rain = 0
KAD1 131939Z 36032G38KT 06/M14 A3013 RMK A01 T00631141  RH  022%=      5-min Rain = 0
KAD1 131940Z 36034KT 06/M14 A3013 RMK A01 T00631143  RH  021%=      5-min Rain = 0
KAD1 131941Z 01032KT 06/M14 A3013 RMK A01 T00621143  RH  021%=      5-min Rain = 0
KAD1 131942Z 35026G31KT 06/M14 A3013 RMK A01 T00621143  RH  022%=      5-min Rain = 0
KAD1 131943Z 01027G34KT 06/M14 A3013 RMK A01 T00631141  RH  022%=      5-min Rain = 0
KAD1 131944Z 00032G39KT 07/M14 A3013 RMK A01 T00651139  RH  022%=      5-min Rain = 0
KAD1 131945Z 00031G39KT 06/M14 A3013 RMK A01 T00641143  RH  021%=      5-min Rain = 0
KAD1 131946Z 01030G35KT 06/M14 A3013 RMK A01 T00631142  RH  021%=      5-min Rain = 0
KAD1 131947Z 01031G36KT 06/M14 A3013 RMK A01 T00631140  RH  022%=      5-min Rain = 0
KAD1 131948Z 01030KT 06/M14 A3013 RMK A01 T00631138  RH  022%=      5-min Rain = 0
KAD1 131949Z 00027G33KT 06/M14 A3013 RMK A01 T00631136  RH  022%=      5-min Rain = 0
KAD1 131950Z 01031G38KT 06/M14 A3013 RMK A01 T00631137  RH  022%=      5-min Rain = 0
KAD1 131951Z 00032G37KT 06/M14 A3013 RMK A01 T00631137  RH  022%=      5-min Rain = 0
KAD1 131952Z 00031KT 06/M14 A3013 RMK A01 T00631139  RH  022%=      5-min Rain = 0
KAD1 131953Z 01030G37KT 06/M14 A3013 RMK A01 T00631140  RH  022%=      5-min Rain = 0
KAD1 131954Z 00028G35KT 06/M14 A3013 RMK A01 T00631138  RH  022%=      5-min Rain = 0
KAD1 131955Z 00027G32KT 06/M14 A3013 RMK A01 T00641139  RH  022%=      5-min Rain = 0
KAD1 131956Z 00030KT 06/M14 A3013 RMK A01 T00641138  RH  022%=      5-min Rain = 0
KAD1 131957Z 00031KT 06/M14 A3013 RMK A01 T00631139  RH  022%=      5-min Rain = 0
KAD1 131958Z 01031G38KT 06/M14 A3013 RMK A01 T00621140  RH  022%=      5-min Rain = 0
KAD1 131959Z 00028G35KT 06/M14 A3013 RMK A01 T00611139  RH  022%=      5-min Rain = 0
KAD1 132000Z 01031KT 06/M14 A3012 RMK A01 T00611140  RH  022%=      5-min Rain = 0
KAD1 132001Z 01029G34KT 06/M14 A3012 RMK A01 T00611140  RH  022%=      5-min Rain = 0
KAD1 132002Z 01029KT 06/M14 A3012 RMK A01 T00631137  RH  022%=      5-min Rain = 0
KAD1 132003Z 01027G34KT 06/M14 A3013 RMK A01 T00641135  RH  023%=      5-min Rain = 0
KAD1 132004Z 00028G33KT 07/M13 A3013 RMK A01 T00651134  RH  022%=      5-min Rain = 0
KAD1 132005Z 01029G35KT 06/M14 A3012 RMK A01 T00641136  RH  022%=      5-min Rain = 0
KAD1 132006Z 02031G39KT 06/M14 A3012 RMK A01 T00641136  RH  022%=      5-min Rain = 0
KAD1 132007Z 02030G36KT 06/M14 A3013 RMK A01 T00641138  RH  022%=      5-min Rain = 0
KAD1 132008Z 01032G38KT 06/M14 A3013 RMK A01 T00641140  RH  022%=      5-min Rain = 0
KAD1 132009Z 01026G31KT 06/M14 A3013 RMK A01 T00631143  RH  021%=      5-min Rain = 0
KAD1 132010Z 01026KT 07/M14 A3013 RMK A01 T00651140  RH  021%=      5-min Rain = 0
KAD1 132011Z 01027G32KT 07/M14 A3013 RMK A01 T00651143  RH  021%=      5-min Rain = 0
KAD1 132012Z 00027G33KT 07/M14 A3013 RMK A01 T00661143  RH  021%=      5-min Rain = 0
KAD1 132013Z 01032G39KT 07/M14 A3013 RMK A01 T00671142  RH  021%=      5-min Rain = 0
KAD1 132014Z 01028KT 07/M14 A3013 RMK A01 T00651144  RH  021%=      5-min Rain = 0
KAD1 132015Z 01029G35KT 06/M14 A3013 RMK A01 T00641144  RH  021%=      5-min Rain = 0
KAD1 132016Z 01032G37KT 06/M15 A3013 RMK A01 T00641145  RH  021%=      5-min Rain = 0
KAD1 132017Z 01030G37KT 06/M15 A3013 RMK A01 T00631145  RH  021%=      5-min Rain = 0
KAD1 132018Z 02033G39KT 06/M14 A3012 RMK A01 T00631144  RH  021%=      5-min Rain = 0
KAD1 132019Z 02033KT 06/M15 A3012 RMK A01 T00641145  RH  021%=      5-min Rain = 0
KAD1 132020Z 02031G36KT 06/M15 A3012 RMK A01 T00641145  RH  021%=      5-min Rain = 0
KAD1 132021Z 02032G39KT 06/M15 A3012 RMK A01 T00631145  RH  021%=      5-min Rain = 0
KAD1 132022Z 01027G35KT 06/M14 A3013 RMK A01 T00641143  RH  021%=      5-min Rain = 0
KAD1 132023Z 01027G33KT 07/M14 A3013 RMK A01 T00651142  RH  021%=      5-min Rain = 0
KAD1 132024Z 01028G34KT 07/M14 A3013 RMK A01 T00651142  RH  021%=      5-min Rain = 0
KAD1 132025Z 01031G37KT 07/M14 A3013 RMK A01 T00661140  RH  021%=      5-min Rain = 0
KAD1 132026Z 01031G37KT 07/M14 A3013 RMK A01 T00661141  RH  021%=      5-min Rain = 0
KAD1 132027Z 01030G35KT 06/M14 A3013 RMK A01 T00641143  RH  021%=      5-min Rain = 0
KAD1 132028Z 01033KT 06/M14 A3013 RMK A01 T00641143  RH  021%=      5-min Rain = 0
KAD1 132029Z 01032KT 06/M15 A3013 RMK A01 T00631145  RH  021%=      5-min Rain = 0
KAD1 132030Z 01028G34KT 06/M14 A3013 RMK A01 T00621144  RH  021%=      5-min Rain = 0
KAD1 132031Z 00027G32KT 06/M14 A3013 RMK A01 T00631142  RH  021%=      5-min Rain = 0
KAD1 132032Z 01025KT 06/M14 A3013 RMK A01 T00641141  RH  022%=      5-min Rain = 0
KAD1 132033Z 01025KT 07/M14 A3013 RMK A01 T00651139  RH  022%=      5-min Rain = 0
KAD1 132034Z 35025G31KT 07/M14 A3013 RMK A01 T00661140  RH  021%=      5-min Rain = 0
KAD1 132035Z 00028G33KT 07/M14 A3013 RMK A01 T00671140  RH  021%=      5-min Rain = 0
KAD1 132036Z 36034KT 07/M14 A3013 RMK A01 T00651143  RH  021%=      5-min Rain = 0
KAD1 132037Z 35030G35KT 06/M15 A3013 RMK A01 T00621145  RH  021%=      5-min Rain = 0
KAD1 132038Z 36028G36KT 06/M14 A3013 RMK A01 T00611143  RH  021%=      5-min Rain = 0
KAD1 132039Z 35027G33KT 06/M14 A3013 RMK A01 T00621141  RH  022%=      5-min Rain = 0
KAD1 132040Z 35027G33KT 06/M14 A3013 RMK A01 T00621141  RH  022%=      5-min Rain = 0
KAD1 132041Z 35027G36KT 06/M14 A3013 RMK A01 T00621142  RH  022%=      5-min Rain = 0
KAD1 132042Z 01027G33KT 06/M14 A3013 RMK A01 T00631141  RH  022%=      5-min Rain = 0
KAD1 132043Z 01024G30KT 06/M14 A3013 RMK A01 T00641141  RH  022%=      5-min Rain = 0
KAD1 132044Z 01026G32KT 07/M14 A3013 RMK A01 T00661137  RH  022%=      5-min Rain = 0
KAD1 132045Z 01027G33KT 07/M14 A3013 RMK A01 T00671136  RH  022%=      5-min Rain = 0
KAD1 132046Z 02026KT 07/M14 A3013 RMK A01 T00661138  RH  022%=      5-min Rain = 0
KAD1 132047Z 01023G29KT 07/M14 A3013 RMK A01 T00661137  RH  022%=      5-min Rain = 0
KAD1 132048Z 36028G35KT 07/M14 A3013 RMK A01 T00671136  RH  022%=      5-min Rain = 0
KAD1 132049Z 35028G33KT 07/M14 A3013 RMK A01 T00661139  RH  021%=      5-min Rain = 0
KAD1 132050Z 01027G32KT 07/M14 A3013 RMK A01 T00651141  RH  021%=      5-min Rain = 0
KAD1 132051Z 00030KT 07/M14 A3013 RMK A01 T00651140  RH  021%=      5-min Rain = 0
KAD1 132052Z 01024G29KT 06/M14 A3013 RMK A01 T00641140  RH  022%=      5-min Rain = 0
KAD1 132053Z 01025G32KT 07/M14 A3013 RMK A01 T00651137  RH  022%=      5-min Rain = 0
KAD1 132054Z 01024G29KT 07/M14 A3013 RMK A01 T00661139  RH  021%=      5-min Rain = 0
KAD1 132055Z 01026G32KT 07/M14 A3013 RMK A01 T00661139  RH  021%=      5-min Rain = 0
KAD1 132056Z 01030G36KT 07/M14 A3013 RMK A01 T00671140  RH  021%=      5-min Rain = 0
KAD1 132057Z 01029G35KT 07/M14 A3013 RMK A01 T00661141  RH  021%=      5-min Rain = 0
KAD1 132058Z 01025G32KT 07/M14 A3013 RMK A01 T00651144  RH  021%=      5-min Rain = 0
KAD1 132059Z 01026G31KT 06/M14 A3013 RMK A01 T00641142  RH  021%=      5-min Rain = 0
KAD1 132100Z 01029G34KT 07/M14 A3013 RMK A01 T00661140  RH  021%=      5-min Rain = 0
KAD1 132101Z 01028G35KT 06/M14 A3013 RMK A01 T00641144  RH  021%=      5-min Rain = 0
KAD1 132102Z 01027KT 06/M14 A3013 RMK A01 T00621144  RH  021%=      5-min Rain = 0
KAD1 132103Z 01034G42KT 06/M14 A3013 RMK A01 T00631142  RH  021%=      5-min Rain = 0
KAD1 132104Z 01031G36KT 06/M14 A3013 RMK A01 T00621143  RH  021%=      5-min Rain = 0
KAD1 132105Z 36028G34KT 06/M14 A3014 RMK A01 T00621142  RH  022%=      5-min Rain = 0
KAD1 132106Z 01033KT 06/M14 A3014 RMK A01 T00621140  RH  022%=      5-min Rain = 0
KAD1 132107Z 00029G36KT 06/M14 A3014 RMK A01 T00611140  RH  022%=      5-min Rain = 0
KAD1 132108Z 00024G29KT 06/M14 A3014 RMK A01 T00601140  RH  022%=      5-min Rain = 0
KAD1 132109Z 00026G31KT 06/M14 A3014 RMK A01 T00601138  RH  022%=      5-min Rain = 0
KAD1 132110Z 01029KT 06/M14 A3014 RMK A01 T00611138  RH  022%=      5-min Rain = 0
KAD1 132111Z 00029KT 06/M14 A3014 RMK A01 T00611138  RH  023%=      5-min Rain = 0
KAD1 132112Z 00025G33KT 06/M14 A3014 RMK A01 T00611137  RH  023%=      5-min Rain = 0
KAD1 132113Z 01023G31KT 06/M14 A3014 RMK A01 T00621136  RH  023%=      5-min Rain = 0
KAD1 132114Z 01025G31KT 06/M13 A3013 RMK A01 T00641134  RH  023%=      5-min Rain = 0
KAD1 132115Z 01029KT 07/M14 A3013 RMK A01 T00651136  RH  022%=      5-min Rain = 0
KAD1 132116Z 00027G33KT 06/M14 A3014 RMK A01 T00641139  RH  022%=      5-min Rain = 0
KAD1 132117Z 36029G34KT 06/M14 A3014 RMK A01 T00621140  RH  022%=      5-min Rain = 0
KAD1 132118Z 00029G36KT 06/M14 A3014 RMK A01 T00621140  RH  022%=      5-min Rain = 0
KAD1 132119Z 01031G36KT 06/M14 A3014 RMK A01 T00611142  RH  022%=      5-min Rain = 0
KAD1 132120Z 00032G39KT 06/M14 A3014 RMK A01 T00601143  RH  022%=      5-min Rain = 0
KAD1 132121Z 01030G36KT 06/M14 A3014 RMK A01 T00601142  RH  022%=      5-min Rain = 0
KAD1 132122Z 01027G32KT 06/M14 A3014 RMK A01 T00601141  RH  022%=      5-min Rain = 0
KAD1 132123Z 00030G37KT 06/M14 A3014 RMK A01 T00611140  RH  022%=      5-min Rain = 0
KAD1 132124Z 01031G36KT 06/M14 A3014 RMK A01 T00601140  RH  022%=      5-min Rain = 0
KAD1 132125Z 01027G35KT 06/M14 A3014 RMK A01 T00591140  RH  022%=      5-min Rain = 0
KAD1 132126Z 00025KT 06/M14 A3014 RMK A01 T00591139  RH  022%=      5-min Rain = 0
KAD1 132127Z 00025KT 06/M14 A3014 RMK A01 T00601139  RH  022%=      5-min Rain = 0
KAD1 132128Z 00023G28KT 06/M14 A3014 RMK A01 T00611138  RH  023%=      5-min Rain = 0
KAD1 132129Z 00024KT 06/M14 A3014 RMK A01 T00631137  RH  022%=      5-min Rain = 0
KAD1 132130Z 00023G30KT 06/M14 A3014 RMK A01 T00631138  RH  022%=      5-min Rain = 0
KAD1 132131Z 00021KT 06/M14 A3014 RMK A01 T00641138  RH  022%=      5-min Rain = 0
KAD1 132132Z 01025G31KT 06/M14 A3014 RMK A01 T00641136  RH  022%=      5-min Rain = 0
KAD1 132133Z 01025KT 06/M14 A3014 RMK A01 T00631137  RH  022%=      5-min Rain = 0
KAD1 132134Z 01031G37KT 06/M14 A3014 RMK A01 T00631138  RH  022%=      5-min Rain = 0
KAD1 132135Z 36025G32KT 06/M14 A3014 RMK A01 T00621142  RH  022%=      5-min Rain = 0
KAD1 132136Z 00031G36KT 06/M14 A3014 RMK A01 T00611144  RH  021%=      5-min Rain = 0
KAD1 132137Z 00026KT 06/M15 A3014 RMK A01 T00601146  RH  021%=      5-min Rain = 0
KAD1 132138Z 36022G30KT 06/M14 A3014 RMK A01 T00601144  RH  021%=      5-min Rain = 0
KAD1 132139Z 35031G38KT 06/M14 A3014 RMK A01 T00611143  RH  022%=      5-min Rain = 0
KAD1 132140Z 36029G35KT 06/M15 A3014 RMK A01 T00591145  RH  021%=      5-min Rain = 0
KAD1 132141Z 01028KT 06/M14 A3015 RMK A01 T00591144  RH  022%=      5-min Rain = 0
KAD1 132142Z 01027G33KT 06/M14 A3014 RMK A01 T00591143  RH  022%=      5-min Rain = 0
KAD1 132143Z 01025G30KT 06/M14 A3014 RMK A01 T00591142  RH  022%=      5-min Rain = 0
KAD1 132144Z 01026KT 06/M14 A3014 RMK A01 T00591143  RH  022%=      5-min Rain = 0
KAD1 132145Z 01025G32KT 06/M14 A3014 RMK A01 T00601142  RH  022%=      5-min Rain = 0
KAD1 132146Z 01029G34KT 06/M14 A3014 RMK A01 T00611142  RH  022%=      5-min Rain = 0
KAD1 132147Z 01031G37KT 06/M14 A3014 RMK A01 T00601142  RH  022%=      5-min Rain = 0
KAD1 132148Z 01028G37KT 06/M14 A3014 RMK A01 T00591141  RH  022%=      5-min Rain = 0
KAD1 132149Z 01025G30KT 06/M14 A3014 RMK A01 T00591141  RH  022%=      5-min Rain = 0
KAD1 132150Z 36029G35KT 06/M14 A3014 RMK A01 T00591140  RH  022%=      5-min Rain = 0
KAD1 132151Z 00031KT 06/M14 A3014 RMK A01 T00591143  RH  022%=      5-min Rain = 0
KAD1 132152Z 36028G33KT 06/M15 A3015 RMK A01 T00581145  RH  022%=      5-min Rain = 0
KAD1 132153Z 35024G29KT 06/M15 A3014 RMK A01 T00581145  RH  022%=      5-min Rain = 0
KAD1 132154Z 35024G39KT 06/M14 A3014 RMK A01 T00581144  RH  022%=      5-min Rain = 0
KAD1 132155Z 35029G36KT 06/M15 A3014 RMK A01 T00591145  RH  022%=      5-min Rain = 0
KAD1 132156Z 36032G39KT 06/M15 A3014 RMK A01 T00591146  RH  021%=      5-min Rain = 0
KAD1 132157Z 36029G36KT 06/M15 A3015 RMK A01 T00581147  RH  021%=      5-min Rain = 0
KAD1 132158Z 35032KT 06/M15 A3015 RMK A01 T00581149  RH  021%=      5-min Rain = 0
KAD1 132159Z 36030G36KT 06/M15 A3015 RMK A01 T00571151  RH  021%=      5-min Rain = 0
KAD1 132200Z 36026G31KT 06/M15 A3015 RMK A01 T00571150  RH  021%=      5-min Rain = 0
KAD1 132201Z 35026KT 06/M15 A3015 RMK A01 T00571148  RH  021%=      5-min Rain = 0
KAD1 132202Z 36031KT 06/M15 A3015 RMK A01 T00571147  RH  022%=      5-min Rain = 0
KAD1 132203Z 36029G34KT 06/M15 A3015 RMK A01 T00561146  RH  022%=      5-min Rain = 0
KAD1 132204Z 35025G31KT 06/M15 A3015 RMK A01 T00561145  RH  022%=      5-min Rain = 0
KAD1 132205Z 36027KT 06/M14 A3015 RMK A01 T00571144  RH  022%=      5-min Rain = 0
KAD1 132206Z 36023KT 06/M14 A3015 RMK A01 T00571144  RH  022%=      5-min Rain = 0
KAD1 132207Z 36025KT 06/M14 A3015 RMK A01 T00581144  RH  022%=      5-min Rain = 0
KAD1 132208Z 35028G33KT 06/M15 A3015 RMK A01 T00581146  RH  021%=      5-min Rain = 0
KAD1 132209Z 35028KT 06/M15 A3015 RMK A01 T00581149  RH  021%=      5-min Rain = 0
KAD1 132210Z 35025G31KT 06/M15 A3015 RMK A01 T00571150  RH  021%=      5-min Rain = 0
KAD1 132211Z 00022G31KT 06/M15 A3015 RMK A01 T00571148  RH  021%=      5-min Rain = 0
KAD1 132212Z 01024KT 06/M15 A3014 RMK A01 T00571146  RH  022%=      5-min Rain = 0
KAD1 132213Z 00024G30KT 06/M15 A3014 RMK A01 T00581145  RH  022%=      5-min Rain = 0
KAD1 132214Z 00028G33KT 06/M15 A3015 RMK A01 T00581145  RH  022%=      5-min Rain = 0
KAD1 132215Z 00023KT 06/M15 A3014 RMK A01 T00561146  RH  022%=      5-min Rain = 0
KAD1 132216Z 35027G32KT 06/M15 A3015 RMK A01 T00571146  RH  022%=      5-min Rain = 0
KAD1 132217Z 36029KT 06/M15 A3014 RMK A01 T00561150  RH  021%=      5-min Rain = 0
KAD1 132218Z 00025KT 06/M15 A3015 RMK A01 T00561149  RH  021%=      5-min Rain = 0
KAD1 132219Z 00024G29KT 06/M15 A3014 RMK A01 T00561147  RH  021%=      5-min Rain = 0
KAD1 132220Z 00025G32KT 06/M15 A3014 RMK A01 T00571147  RH  022%=      5-min Rain = 0
KAD1 132221Z 01024KT 06/M15 A3014 RMK A01 T00561147  RH  022%=      5-min Rain = 0
KAD1 132222Z 36030KT 06/M15 A3015 RMK A01 T00561147  RH  022%=      5-min Rain = 0
KAD1 132223Z 36028G33KT 06/M15 A3015 RMK A01 T00551148  RH  022%=      5-min Rain = 0
KAD1 132224Z 36026G31KT 05/M15 A3015 RMK A01 T00541147  RH  022%=      5-min Rain = 0
KAD1 132225Z 00022G27KT 06/M15 A3015 RMK A01 T00551146  RH  022%=      5-min Rain = 0
KAD1 132226Z 36024G29KT 06/M15 A3015 RMK A01 T00551146  RH  022%=      5-min Rain = 0
KAD1 132227Z 00023G28KT 06/M15 A3015 RMK A01 T00551146  RH  022%=      5-min Rain = 0
KAD1 132228Z 35032G40KT 06/M15 A3015 RMK A01 T00551148  RH  022%=      5-min Rain = 0
KAD1 132229Z 35028G37KT 05/M15 A3015 RMK A01 T00541151  RH  021%=      5-min Rain = 0
KAD1 132230Z 36031G37KT 05/M15 A3015 RMK A01 T00541151  RH  021%=      5-min Rain = 0
KAD1 132231Z 36031KT 05/M15 A3015 RMK A01 T00531151  RH  021%=      5-min Rain = 0
KAD1 132232Z 35028G33KT 05/M15 A3015 RMK A01 T00531151  RH  021%=      5-min Rain = 0
KAD1 132233Z 00030KT 05/M15 A3015 RMK A01 T00521150  RH  022%=      5-min Rain = 0
KAD1 132234Z 00026KT 05/M15 A3015 RMK A01 T00521150  RH  022%=      5-min Rain = 0
KAD1 132235Z 36026G32KT 05/M15 A3015 RMK A01 T00531149  RH  022%=      5-min Rain = 0
KAD1 132236Z 35027KT 05/M15 A3015 RMK A01 T00521149  RH  022%=      5-min Rain = 0
KAD1 132237Z 36028KT 05/M15 A3015 RMK A01 T00521149  RH  022%=      5-min Rain = 0
KAD1 132238Z 01029KT 05/M15 A3015 RMK A01 T00521149  RH  022%=      5-min Rain = 0
KAD1 132239Z 36025KT 05/M15 A3015 RMK A01 T00521149  RH  022%=      5-min Rain = 0
KAD1 132240Z 36025G30KT 05/M15 A3015 RMK A01 T00521148  RH  022%=      5-min Rain = 0
KAD1 132241Z 36026G31KT 05/M15 A3015 RMK A01 T00521147  RH  022%=      5-min Rain = 0
KAD1 132242Z 36031G36KT 05/M15 A3015 RMK A01 T00511147  RH  022%=      5-min Rain = 0
KAD1 132243Z 35032KT 05/M15 A3015 RMK A01 T00511148  RH  022%=      5-min Rain = 0
KAD1 132244Z 35031G36KT 05/M15 A3015 RMK A01 T00501149  RH  022%=      5-min Rain = 0
KAD1 132245Z 35025G31KT 05/M15 A3015 RMK A01 T00511148  RH  022%=      5-min Rain = 0
KAD1 132246Z 35024KT 05/M15 A3015 RMK A01 T00501148  RH  022%=      5-min Rain = 0
KAD1 132247Z 36023KT 05/M15 A3015 RMK A01 T00511147  RH  022%=      5-min Rain = 0
KAD1 132248Z 00026KT 05/M15 A3015 RMK A01 T00501147  RH  023%=      5-min Rain = 0
KAD1 132249Z 00027G32KT 05/M15 A3015 RMK A01 T00501147  RH  023%=      5-min Rain = 0
KAD1 132250Z 00028KT 05/M15 A3015 RMK A01 T00501147  RH  023%=      5-min Rain = 0
KAD1 132251Z 36026G32KT 05/M15 A3015 RMK A01 T00491148  RH  022%=      5-min Rain = 0
KAD1 132252Z 35026KT 05/M15 A3015 RMK A01 T00491148  RH  022%=      5-min Rain = 0
KAD1 132253Z 36025KT 05/M15 A3015 RMK A01 T00491148  RH  023%=      5-min Rain = 0
KAD1 132254Z 35026G31KT 05/M15 A3015 RMK A01 T00491147  RH  023%=      5-min Rain = 0
KAD1 132255Z 36025G31KT 05/M15 A3015 RMK A01 T00491147  RH  023%=      5-min Rain = 0
KAD1 132256Z 36025G30KT 05/M15 A3015 RMK A01 T00491146  RH  023%=      5-min Rain = 0
KAD1 132257Z 00025G30KT 05/M15 A3015 RMK A01 T00481146  RH  023%=      5-min Rain = 0
KAD1 132258Z 01021G26KT 05/M15 A3015 RMK A01 T00471145  RH  023%=      5-min Rain = 0
KAD1 132259Z 00022KT 05/M15 A3015 RMK A01 T00471145  RH  023%=      5-min Rain = 0
KAD1 132300Z 00022KT 05/M15 A3015 RMK A01 T00471145  RH  023%=      5-min Rain = 0
KAD1 132301Z 00020KT 05/M15 A3015 RMK A01 T00471145  RH  024%=      5-min Rain = 0
KAD1 132302Z 00024G29KT 05/M14 A3015 RMK A01 T00461144  RH  024%=      5-min Rain = 0
KAD1 132303Z 36023G28KT 05/M14 A3015 RMK A01 T00461144  RH  024%=      5-min Rain = 0
KAD1 132304Z 00024G35KT 05/M15 A3015 RMK A01 T00451145  RH  024%=      5-min Rain = 0
KAD1 132305Z 01029G34KT 05/M15 A3015 RMK A01 T00451145  RH  024%=      5-min Rain = 0
KAD1 132306Z 01030G36KT 05/M15 A3014 RMK A01 T00451145  RH  024%=      5-min Rain = 0
KAD1 132307Z 01026KT 05/M15 A3015 RMK A01 T00451145  RH  024%=      5-min Rain = 0
KAD1 132308Z 00022KT 04/M15 A3015 RMK A01 T00441145  RH  024%=      5-min Rain = 0
KAD1 132309Z 00021KT 04/M14 A3015 RMK A01 T00441144  RH  024%=      5-min Rain = 0
KAD1 132310Z 36023KT 04/M14 A3015 RMK A01 T00431144  RH  024%=      5-min Rain = 0
KAD1 132311Z 00022G28KT 04/M14 A3015 RMK A01 T00431144  RH  024%=      5-min Rain = 0
KAD1 132312Z 01022G27KT 04/M14 A3015 RMK A01 T00431144  RH  024%=      5-min Rain = 0
KAD1 132313Z 01024G34KT 04/M14 A3015 RMK A01 T00421144  RH  024%=      5-min Rain = 0
KAD1 132314Z 00027G32KT 04/M14 A3015 RMK A01 T00421144  RH  024%=      5-min Rain = 0
KAD1 132315Z 01027KT 04/M14 A3015 RMK A01 T00421144  RH  024%=      5-min Rain = 0
KAD1 132316Z 00025G30KT 04/M14 A3015 RMK A01 T00421144  RH  024%=      5-min Rain = 0
KAD1 132317Z 00021G29KT 04/M15 A3015 RMK A01 T00421145  RH  024%=      5-min Rain = 0
KAD1 132318Z 00019KT 04/M15 A3015 RMK A01 T00411145  RH  024%=      5-min Rain = 0
KAD1 132319Z 00021KT 04/M15 A3015 RMK A01 T00401145  RH  025%=      5-min Rain = 0
KAD1 132320Z 00022KT 04/M15 A3015 RMK A01 T00401145  RH  025%=      5-min Rain = 0
KAD1 132321Z 01021G29KT 04/M14 A3015 RMK A01 T00401144  RH  025%=      5-min Rain = 0
KAD1 132322Z 00023KT 04/M14 A3015 RMK A01 T00401144  RH  025%=      5-min Rain = 0
KAD1 132323Z 01021KT 04/M15 A3015 RMK A01 T00401145  RH  025%=      5-min Rain = 0
KAD1 132324Z 36018KT 04/M14 A3016 RMK A01 T00391144  RH  025%=      5-min Rain = 0
KAD1 132325Z 01022G28KT 04/M14 A3016 RMK A01 T00381144  RH  025%=      5-min Rain = 0
KAD1 132326Z 01026G31KT 04/M14 A3016 RMK A01 T00381144  RH  025%=      5-min Rain = 0
KAD1 132327Z 00024KT 04/M15 A3016 RMK A01 T00391145  RH  025%=      5-min Rain = 0
KAD1 132328Z 00022G27KT 04/M15 A3016 RMK A01 T00391145  RH  025%=      5-min Rain = 0
KAD1 132329Z 01024KT 04/M15 A3016 RMK A01 T00391145  RH  025%=      5-min Rain = 0
KAD1 132330Z 00019KT 04/M15 A3016 RMK A01 T00381145  RH  025%=      5-min Rain = 0
KAD1 132331Z 00019G24KT 04/M15 A3016 RMK A01 T00371145  RH  025%=      5-min Rain = 0
KAD1 132332Z 00022G29KT 04/M15 A3016 RMK A01 T00371145  RH  025%=      5-min Rain = 0
KAD1 132333Z 00017KT 04/M15 A3016 RMK A01 T00371145  RH  025%=      5-min Rain = 0
KAD1 132334Z 01024G29KT 04/M14 A3016 RMK A01 T00361144  RH  025%=      5-min Rain = 0
KAD1 132335Z 36020G26KT 04/M14 A3016 RMK A01 T00361144  RH  025%=      5-min Rain = 0
KAD1 132336Z 36019KT 04/M14 A3016 RMK A01 T00361144  RH  025%=      5-min Rain = 0
KAD1 132337Z 00018KT 04/M14 A3016 RMK A01 T00351144  RH  026%=      5-min Rain = 0
KAD1 132338Z 00020G25KT 03/M14 A3016 RMK A01 T00341144  RH  026%=      5-min Rain = 0
KAD1 132339Z 00018G25KT 03/M14 A3016 RMK A01 T00341144  RH  026%=      5-min Rain = 0
KAD1 132340Z 00023KT 03/M14 A3016 RMK A01 T00341144  RH  026%=      5-min Rain = 0
KAD1 132341Z 01017KT 03/M14 A3016 RMK A01 T00341144  RH  026%=      5-min Rain = 0
KAD1 132342Z 36020KT 03/M14 A3016 RMK A01 T00341144  RH  026%=      5-min Rain = 0
KAD1 132343Z 00018KT 03/M14 A3016 RMK A01 T00341144  RH  026%=      5-min Rain = 0
KAD1 132344Z 00019KT 03/M14 A3016 RMK A01 T00331144  RH  026%=      5-min Rain = 0
KAD1 132345Z 00019KT 03/M14 A3016 RMK A01 T00331144  RH  026%=      5-min Rain = 0
KAD1 132346Z 00017KT 03/M14 A3016 RMK A01 T00321144  RH  026%=      5-min Rain = 0
KAD1 132347Z 00016G21KT 03/M14 A3017 RMK A01 T00321144  RH  026%=      5-min Rain = 0
KAD1 132348Z 00018KT 03/M14 A3017 RMK A01 T00311144  RH  026%=      5-min Rain = 0
KAD1 132349Z 00017KT 03/M14 A3017 RMK A01 T00311144  RH  026%=      5-min Rain = 0
KAD1 132350Z 36017KT 03/M14 A3017 RMK A01 T00321143  RH  026%=      5-min Rain = 0
KAD1 132351Z 00017KT 03/M14 A3017 RMK A01 T00311144  RH  026%=      5-min Rain = 0
KAD1 132352Z 00017KT 03/M14 A3017 RMK A01 T00311143  RH  026%=      5-min Rain = 0
KAD1 132353Z 36015KT 03/M14 A3017 RMK A01 T00311144  RH  026%=      5-min Rain = 0
KAD1 132354Z 00016KT 03/M14 A3017 RMK A01 T00301144  RH  027%=      5-min Rain = 0
KAD1 132355Z 00015KT 03/M14 A3017 RMK A01 T00301143  RH  027%=      5-min Rain = 0
KAD1 132356Z 36015KT 03/M14 A3017 RMK A01 T00291143  RH  027%=      5-min Rain = 0
KAD1 132357Z 00016KT 03/M14 A3017 RMK A01 T00281143  RH  027%=      5-min Rain = 0
KAD1 132358Z 00014KT 03/M14 A3017 RMK A01 T00281143  RH  027%=      5-min Rain = 0
KAD1 132359Z 36016KT 03/M14 A3017 RMK A01 T00281143  RH  027%=      5-min Rain = 0
KAD1 140000Z 00016G21KT 03/M14 A3017 RMK A01 T00281142  RH  027%=      5-min Rain = 0
KAD1 140001Z 00016KT 03/M14 A3017 RMK A01 T00281142  RH  027%=      5-min Rain = 0
KAD1 140002Z 00016KT 03/M14 A3017 RMK A01 T00281142  RH  027%=      5-min Rain = 0
KAD1 140003Z 36016KT 03/M14 A3017 RMK A01 T00281142  RH  027%=      5-min Rain = 0
KAD1 140004Z 36016KT 03/M14 A3017 RMK A01 T00281142  RH  027%=      5-min Rain = 0
KAD1 140005Z 00016KT 03/M14 A3017 RMK A01 T00281142  RH  027%=      5-min Rain = 0
KAD1 140006Z 00018KT 03/M14 A3017 RMK A01 T00271142  RH  027%=      5-min Rain = 0
KAD1 140007Z 36018G24KT 03/M14 A3018 RMK A01 T00271142  RH  027%=      5-min Rain = 0
KAD1 140008Z 00018G23KT 03/M14 A3017 RMK A01 T00281142  RH  027%=      5-min Rain = 0
KAD1 140009Z 00016KT 03/M14 A3018 RMK A01 T00281143  RH  027%=      5-min Rain = 0
KAD1 140010Z 00018G23KT 03/M14 A3018 RMK A01 T00281143  RH  027%=      5-min Rain = 0
KAD1 140011Z 36018G25KT 03/M14 A3018 RMK A01 T00281143  RH  027%=      5-min Rain = 0
KAD1 140012Z 35015KT 03/M14 A3018 RMK A01 T00281143  RH  027%=      5-min Rain = 0
KAD1 140013Z 00018G23KT 03/M14 A3018 RMK A01 T00281142  RH  027%=      5-min Rain = 0
KAD1 140014Z 36020KT 03/M14 A3018 RMK A01 T00271143  RH  027%=      5-min Rain = 0
KAD1 140015Z 36018KT 03/M14 A3018 RMK A01 T00281143  RH  027%=      5-min Rain = 0
KAD1 140016Z 36019KT 03/M14 A3018 RMK A01 T00281143  RH  027%=      5-min Rain = 0
KAD1 140017Z 36017KT 03/M14 A3018 RMK A01 T00291143  RH  027%=      5-min Rain = 0
KAD1 140018Z 00018G23KT 03/M14 A3018 RMK A01 T00281143  RH  027%=      5-min Rain = 0
KAD1 140019Z 36017KT 03/M14 A3018 RMK A01 T00271143  RH  027%=      5-min Rain = 0
KAD1 140020Z 36017KT 03/M14 A3018 RMK A01 T00271142  RH  027%=      5-min Rain = 0
KAD1 140021Z 36017KT 03/M14 A3018 RMK A01 T00271143  RH  027%=      5-min Rain = 0
KAD1 140022Z 36015KT 03/M14 A3018 RMK A01 T00261143  RH  027%=      5-min Rain = 0
KAD1 140023Z 36015KT 03/M14 A3018 RMK A01 T00251143  RH  028%=      5-min Rain = 0
KAD1 140024Z 00015KT 02/M14 A3018 RMK A01 T00241143  RH  028%=      5-min Rain = 0
KAD1 140025Z 00016KT 02/M14 A3018 RMK A01 T00241142  RH  028%=      5-min Rain = 0
KAD1 140026Z 36015KT 02/M14 A3018 RMK A01 T00241143  RH  028%=      5-min Rain = 0
KAD1 140027Z 00017KT 03/M14 A3018 RMK A01 T00251142  RH  028%=      5-min Rain = 0
KAD1 140028Z 36017KT 03/M14 A3018 RMK A01 T00251142  RH  028%=      5-min Rain = 0
KAD1 140029Z 36013KT 03/M14 A3018 RMK A01 T00251142  RH  028%=      5-min Rain = 0
KAD1 140030Z 36015KT 02/M14 A3018 RMK A01 T00231143  RH  028%=      5-min Rain = 0
KAD1 140031Z 00012KT 02/M14 A3019 RMK A01 T00231142  RH  028%=      5-min Rain = 0
KAD1 140032Z 36015KT 02/M14 A3019 RMK A01 T00221143  RH  028%=      5-min Rain = 0
KAD1 140033Z 35014KT 02/M14 A3019 RMK A01 T00221142  RH  028%=      5-min Rain = 0
KAD1 140034Z 35014KT 02/M14 A3019 RMK A01 T00231142  RH  028%=      5-min Rain = 0
KAD1 140035Z 36014G19KT 02/M14 A3019 RMK A01 T00221142  RH  028%=      5-min Rain = 0
KAD1 140036Z 36013KT 02/M14 A3019 RMK A01 T00221142  RH  028%=      5-min Rain = 0
KAD1 140037Z 36015KT 02/M14 A3019 RMK A01 T00211143  RH  029%=      5-min Rain = 0
KAD1 140038Z 36014KT 02/M14 A3019 RMK A01 T00221142  RH  029%=      5-min Rain = 0
KAD1 140039Z 36016KT 02/M14 A3019 RMK A01 T00211142  RH  029%=      5-min Rain = 0
KAD1 140040Z 35014KT 02/M14 A3019 RMK A01 T00211143  RH  029%=      5-min Rain = 0
KAD1 140041Z 36012KT 02/M14 A3019 RMK A01 T00211143  RH  029%=      5-min Rain = 0
KAD1 140042Z 35013G18KT 02/M14 A3019 RMK A01 T00201143  RH  029%=      5-min Rain = 0
KAD1 140043Z 36013KT 02/M14 A3019 RMK A01 T00201143  RH  029%=      5-min Rain = 0
KAD1 140044Z 36014KT 02/M14 A3019 RMK A01 T00201142  RH  029%=      5-min Rain = 0
KAD1 140045Z 00015KT 02/M14 A3019 RMK A01 T00191142  RH  029%=      5-min Rain = 0
KAD1 140046Z 36014KT 02/M14 A3019 RMK A01 T00191142  RH  029%=      5-min Rain = 0
KAD1 140047Z 36014KT 02/M14 A3019 RMK A01 T00191142  RH  029%=      5-min Rain = 0
KAD1 140048Z 36015KT 02/M14 A3019 RMK A01 T00181142  RH  029%=      5-min Rain = 0
KAD1 140049Z 00014KT 02/M14 A3019 RMK A01 T00191142  RH  029%=      5-min Rain = 0
KAD1 140050Z 00013KT 02/M14 A3019 RMK A01 T00191142  RH  029%=      5-min Rain = 0
KAD1 140051Z 36013KT 02/M14 A3019 RMK A01 T00181142  RH  029%=      5-min Rain = 0
KAD1 140052Z 36014KT 02/M14 A3019 RMK A01 T00171142  RH  029%=      5-min Rain = 0
KAD1 140053Z 36015KT 02/M14 A3019 RMK A01 T00171142  RH  030%=      5-min Rain = 0
KAD1 140054Z 35013KT 02/M14 A3019 RMK A01 T00181142  RH  030%=      5-min Rain = 0
KAD1 140055Z 36013KT 02/M14 A3019 RMK A01 T00181142  RH  029%=      5-min Rain = 0
KAD1 140056Z 35013KT 02/M14 A3019 RMK A01 T00171142  RH  030%=      5-min Rain = 0
KAD1 140057Z 00016KT 02/M14 A3019 RMK A01 T00171142  RH  030%=      5-min Rain = 0
KAD1 140058Z 36014KT 02/M14 A3019 RMK A01 T00171142  RH  030%=      5-min Rain = 0
KAD1 140059Z 36013KT 02/M14 A3019 RMK A01 T00181141  RH  030%=      5-min Rain = 0
KAD1 140100Z 36014KT 02/M14 A3019 RMK A01 T00161142  RH  030%=      5-min Rain = 0
KAD1 140101Z 36015KT 02/M14 A3019 RMK A01 T00161142  RH  030%=      5-min Rain = 0
KAD1 140102Z 35014KT 02/M14 A3019 RMK A01 T00161142  RH  030%=      5-min Rain = 0
KAD1 140103Z 35013G18KT 02/M14 A3019 RMK A01 T00161142  RH  030%=      5-min Rain = 0
KAD1 140104Z 36015KT 02/M14 A3019 RMK A01 T00161142  RH  030%=      5-min Rain = 0
KAD1 140105Z 35015KT 02/M14 A3019 RMK A01 T00161142  RH  030%=      5-min Rain = 0
KAD1 140106Z 36015KT 02/M14 A3019 RMK A01 T00161142  RH  030%=      5-min Rain = 0
KAD1 140107Z 35014KT 02/M14 A3019 RMK A01 T00171142  RH  030%=      5-min Rain = 0
KAD1 140108Z 35013KT 02/M14 A3019 RMK A01 T00161142  RH  030%=      5-min Rain = 0
KAD1 140109Z 36014KT 02/M14 A3019 RMK A01 T00151142  RH  030%=      5-min Rain = 0
KAD1 140110Z 35015KT 02/M14 A3019 RMK A01 T00151142  RH  030%=      5-min Rain = 0
KAD1 140111Z 35015KT 02/M14 A3019 RMK A01 T00161142  RH  030%=      5-min Rain = 0
KAD1 140112Z 36015G20KT 02/M14 A3019 RMK A01 T00171142  RH  030%=      5-min Rain = 0
KAD1 140113Z 35014KT 02/M14 A3019 RMK A01 T00161142  RH  030%=      5-min Rain = 0
KAD1 140114Z 36013KT 02/M14 A3019 RMK A01 T00161142  RH  030%=      5-min Rain = 0
KAD1 140115Z 36012KT 01/M14 A3019 RMK A01 T00141142  RH  030%=      5-min Rain = 0
KAD1 140116Z 36013KT 01/M14 A3019 RMK A01 T00141142  RH  030%=      5-min Rain = 0
KAD1 140117Z 36015KT 01/M14 A3019 RMK A01 T00131142  RH  030%=      5-min Rain = 0
KAD1 140118Z 36014KT 01/M14 A3019 RMK A01 T00141142  RH  030%=      5-min Rain = 0
KAD1 140119Z 35012KT 01/M14 A3019 RMK A01 T00141142  RH  030%=      5-min Rain = 0
KAD1 140120Z 35013KT 01/M14 A3019 RMK A01 T00131142  RH  031%=      5-min Rain = 0
KAD1 140121Z 35011KT 01/M14 A3019 RMK A01 T00131141  RH  031%=      5-min Rain = 0
KAD1 140122Z 36012KT 01/M14 A302 RMK A01 T00121142  RH  031%=      5-min Rain = 0
KAD1 140123Z 00013KT 01/M14 A302 RMK A01 T00121142  RH  031%=      5-min Rain = 0
KAD1 140124Z 35013KT 01/M14 A302 RMK A01 T00121141  RH  031%=      5-min Rain = 0
KAD1 140125Z 35012KT 01/M14 A302 RMK A01 T00131141  RH  031%=      5-min Rain = 0
KAD1 140126Z 36012KT 01/M14 A302 RMK A01 T00111142  RH  031%=      5-min Rain = 0
KAD1 140127Z 36013KT 01/M14 A302 RMK A01 T00101142  RH  031%=      5-min Rain = 0
KAD1 140128Z 35014KT 01/M14 A302 RMK A01 T00101141  RH  031%=      5-min Rain = 0
KAD1 140129Z 35013KT 01/M14 A302 RMK A01 T00111141  RH  031%=      5-min Rain = 0
KAD1 140130Z 36014KT 01/M14 A302 RMK A01 T00111141  RH  031%=      5-min Rain = 0
KAD1 140131Z 00013KT 01/M14 A302 RMK A01 T00111141  RH  031%=      5-min Rain = 0
KAD1 140132Z 36012KT 01/M14 A302 RMK A01 T00111141  RH  031%=      5-min Rain = 0
KAD1 140133Z 36013KT 01/M14 A302 RMK A01 T00101141  RH  031%=      5-min Rain = 0
KAD1 140134Z 36013KT 01/M14 A302 RMK A01 T00101141  RH  031%=      5-min Rain = 0
KAD1 140135Z 36013KT 01/M14 A302 RMK A01 T00101141  RH  031%=      5-min Rain = 0
KAD1 140136Z 35014KT 01/M14 A302 RMK A01 T00101141  RH  031%=      5-min Rain = 0
KAD1 140137Z 36012KT 01/M14 A302 RMK A01 T00091141  RH  032%=      5-min Rain = 0
KAD1 140138Z 35013KT 01/M14 A302 RMK A01 T00091141  RH  032%=      5-min Rain = 0
KAD1 140139Z 35013KT 01/M14 A302 RMK A01 T00091141  RH  032%=      5-min Rain = 0
KAD1 140140Z 35013KT 01/M14 A302 RMK A01 T00081141  RH  032%=      5-min Rain = 0
KAD1 140141Z 35013KT 01/M14 A302 RMK A01 T00081141  RH  032%=      5-min Rain = 0
KAD1 140142Z 36014KT 01/M14 A302 RMK A01 T00081141  RH  032%=      5-min Rain = 0
KAD1 140143Z 35015KT 01/M14 A302 RMK A01 T00081140  RH  032%=      5-min Rain = 0
KAD1 140144Z 36014KT 01/M14 A302 RMK A01 T00091140  RH  032%=      5-min Rain = 0
KAD1 140145Z 35013KT 01/M14 A302 RMK A01 T00091140  RH  032%=      5-min Rain = 0
KAD1 140146Z 36013KT 01/M14 A302 RMK A01 T00071141  RH  032%=      5-min Rain = 0
KAD1 140147Z 36013KT 01/M14 A302 RMK A01 T00071141  RH  032%=      5-min Rain = 0
KAD1 140148Z 36013KT 01/M14 A302 RMK A01 T00061141  RH  032%=      5-min Rain = 0
KAD1 140149Z 36013KT 01/M14 A302 RMK A01 T00061140  RH  033%=      5-min Rain = 0
KAD1 140150Z 36013KT 01/M14 A302 RMK A01 T00051140  RH  033%=      5-min Rain = 0
KAD1 140151Z 35013KT 01/M14 A302 RMK A01 T00051140  RH  033%=      5-min Rain = 0
KAD1 140152Z 36013KT 01/M14 A302 RMK A01 T00051140  RH  033%=      5-min Rain = 0
KAD1 140153Z 00012KT 01/M14 A302 RMK A01 T00051140  RH  033%=      5-min Rain = 0
KAD1 140154Z 36013KT 00/M14 A302 RMK A01 T00041141  RH  033%=      5-min Rain = 0
KAD1 140155Z 00012KT 00/M14 A302 RMK A01 T00031140  RH  033%=      5-min Rain = 0
KAD1 140156Z 36014KT 00/M14 A3021 RMK A01 T00041140  RH  033%=      5-min Rain = 0
KAD1 140157Z 36013KT 01/M14 A3021 RMK A01 T00051140  RH  033%=      5-min Rain = 0
KAD1 140158Z 36012KT 00/M14 A3021 RMK A01 T00041140  RH  033%=      5-min Rain = 0
KAD1 140159Z 00012KT 00/M14 A3021 RMK A01 T00031140  RH  033%=      5-min Rain = 0
KAD1 140200Z 36014KT 00/M14 A3021 RMK A01 T00031140  RH  033%=      5-min Rain = 0
KAD1 140201Z 36012KT 00/M14 A3021 RMK A01 T00041140  RH  033%=      5-min Rain = 0
KAD1 140202Z 36015KT 00/M14 A3021 RMK A01 T00041140  RH  033%=      5-min Rain = 0
KAD1 140203Z 36013KT 00/M14 A3021 RMK A01 T00031140  RH  033%=      5-min Rain = 0
KAD1 140204Z 36013KT 00/M14 A3021 RMK A01 T00031141  RH  033%=      5-min Rain = 0
KAD1 140205Z 00013KT 00/M14 A3021 RMK A01 T00041140  RH  033%=      5-min Rain = 0
KAD1 140206Z 36014KT 00/M14 A3021 RMK A01 T00041140  RH  033%=      5-min Rain = 0
KAD1 140207Z 00012KT 00/M14 A3021 RMK A01 T00041140  RH  033%=      5-min Rain = 0
KAD1 140208Z 36013KT 00/M14 A3021 RMK A01 T00021140  RH  033%=      5-min Rain = 0
KAD1 140209Z 36013KT 00/M14 A3021 RMK A01 T00011140  RH  034%=      5-min Rain = 0
KAD1 140210Z 36013KT 00/M14 A3021 RMK A01 T00011140  RH  034%=      5-min Rain = 0
KAD1 140211Z 00014KT 00/M14 A3021 RMK A01 T00011140  RH  034%=      5-min Rain = 0
KAD1 140212Z 36013KT 00/M14 A3021 RMK A01 T00021140  RH  034%=      5-min Rain = 0
KAD1 140213Z 00013KT 00/M14 A3021 RMK A01 T00021140  RH  034%=      5-min Rain = 0
KAD1 140214Z 00014KT 00/M14 A3021 RMK A01 T00011140  RH  034%=      5-min Rain = 0
KAD1 140215Z 00012KT 00/M14 A3021 RMK A01 T00011140  RH  034%=      5-min Rain = 0
KAD1 140216Z 00014KT 00/14 A3021 RMK A01 T00-00-140  RH  034%=      5-min Rain = 0
KAD1 140217Z 00014KT 00/14 A3021 RMK A01 T00-00-140  RH  034%=      5-min Rain = 0
KAD1 140218Z 00015KT 00/M14 A3021 RMK A01 T00021139  RH  034%=      5-min Rain = 0
KAD1 140219Z 00013KT 00/M14 A3021 RMK A01 T00021140  RH  033%=      5-min Rain = 0
KAD1 140220Z 00013KT 00/M14 A3021 RMK A01 T00021140  RH  033%=      5-min Rain = 0
KAD1 140221Z 36013KT 00/M14 A3021 RMK A01 T00011140  RH  034%=      5-min Rain = 0
KAD1 140222Z 36013KT 00/M14 A3021 RMK A01 T00011140  RH  034%=      5-min Rain = 0
KAD1 140223Z 00013KT 00/M14 A3021 RMK A01 T00011140  RH  034%=      5-min Rain = 0
KAD1 140224Z 00012KT M00/M14 A3021 RMK A01 T10011140  RH  034%=      5-min Rain = 0
KAD1 140225Z 00012KT M00/M14 A3021 RMK A01 T10021140  RH  034%=      5-min Rain = 0
KAD1 140226Z 00013KT M00/M14 A3021 RMK A01 T10011139  RH  034%=      5-min Rain = 0
KAD1 140227Z 36013KT M00/M14 A3021 RMK A01 T10011140  RH  034%=      5-min Rain = 0
KAD1 140228Z 00012KT M00/M14 A3021 RMK A01 T10011140  RH  034%=      5-min Rain = 0
KAD1 140229Z 00013KT M00/M14 A3021 RMK A01 T10011140  RH  034%=      5-min Rain = 0
KAD1 140230Z 36013KT M00/M14 A3022 RMK A01 T10011139  RH  034%=      5-min Rain = 0
KAD1 140231Z 36012KT 00/14 A3022 RMK A01 T00-00-139  RH  034%=      5-min Rain = 0
KAD1 140232Z 00012KT M00/M14 A3022 RMK A01 T10011140  RH  034%=      5-min Rain = 0
KAD1 140233Z 00012KT M00/M14 A3022 RMK A01 T10011140  RH  034%=      5-min Rain = 0
KAD1 140234Z 00013KT M00/M14 A3022 RMK A01 T10011140  RH  034%=      5-min Rain = 0
KAD1 140235Z 00012KT M00/M14 A3022 RMK A01 T10011139  RH  034%=      5-min Rain = 0
KAD1 140236Z 36014KT M00/M14 A3022 RMK A01 T10011139  RH  034%=      5-min Rain = 0
KAD1 140237Z 00011KT 00/14 A3022 RMK A01 T00000-139  RH  034%=      5-min Rain = 0
KAD1 140238Z 36013KT 00/14 A3022 RMK A01 T00-00-139  RH  034%=      5-min Rain = 0
KAD1 140239Z 36013KT M00/M14 A3022 RMK A01 T10011139  RH  034%=      5-min Rain = 0
KAD1 140240Z 00013KT M00/M14 A3022 RMK A01 T10011139  RH  034%=      5-min Rain = 0
KAD1 140241Z 36012KT 00/14 A3022 RMK A01 T00-00-139  RH  034%=      5-min Rain = 0
KAD1 140242Z 36013KT 00/14 A3022 RMK A01 T00-00-139  RH  034%=      5-min Rain = 0
KAD1 140243Z 36011KT 00/14 A3022 RMK A01 T00-00-139  RH  034%=      5-min Rain = 0
KAD1 140244Z 36011KT M00/M14 A3022 RMK A01 T10011139  RH  034%=      5-min Rain = 0
KAD1 140245Z 00012KT M00/M14 A3022 RMK A01 T10011139  RH  034%=      5-min Rain = 0
KAD1 140246Z 00013KT M00/M14 A3022 RMK A01 T10011139  RH  034%=      5-min Rain = 0
KAD1 140247Z 36013KT M00/M14 A3022 RMK A01 T10011139  RH  035%=      5-min Rain = 0
KAD1 140248Z 00012KT M00/M14 A3022 RMK A01 T10011139  RH  035%=      5-min Rain = 0
KAD1 140249Z 36012KT M00/M14 A3022 RMK A01 T10011140  RH  034%=      5-min Rain = 0
KAD1 140250Z 36012KT M00/M14 A3022 RMK A01 T10011140  RH  034%=      5-min Rain = 0
KAD1 140251Z 00012KT M00/M14 A3023 RMK A01 T10021140  RH  035%=      5-min Rain = 0
KAD1 140252Z 36010KT M00/M14 A3023 RMK A01 T10021140  RH  035%=      5-min Rain = 0
KAD1 140253Z 36011KT M00/M14 A3023 RMK A01 T10031140  RH  035%=      5-min Rain = 0
KAD1 140254Z 36010KT M00/M14 A3023 RMK A01 T10041141  RH  035%=      5-min Rain = 0
KAD1 140255Z 36012KT M00/M14 A3023 RMK A01 T10041140  RH  035%=      5-min Rain = 0
KAD1 140256Z 36011KT M00/M14 A3023 RMK A01 T10041140  RH  035%=      5-min Rain = 0
KAD1 140257Z 00012KT M00/M14 A3023 RMK A01 T10041140  RH  035%=      5-min Rain = 0
KAD1 140258Z 36011KT M00/M14 A3023 RMK A01 T10041140  RH  035%=      5-min Rain = 0
KAD1 140259Z 36010KT M00/M14 A3023 RMK A01 T10041140  RH  035%=      5-min Rain = 0
KAD1 140300Z 36012KT M00/M14 A3023 RMK A01 T10041140  RH  035%=      5-min Rain = 0
KAD1 140301Z 35011KT M00/M14 A3023 RMK A01 T10031140  RH  035%=      5-min Rain = 0
KAD1 140302Z 36013KT M00/M14 A3023 RMK A01 T10031140  RH  035%=      5-min Rain = 0
KAD1 140303Z 36012KT M00/M14 A3023 RMK A01 T10031140  RH  035%=      5-min Rain = 0
KAD1 140304Z 00013G18KT M00/M14 A3023 RMK A01 T10031141  RH  035%=      5-min Rain = 0
KAD1 140305Z 36010KT M00/M14 A3023 RMK A01 T10021140  RH  035%=      5-min Rain = 0
KAD1 140306Z 00012KT M00/M14 A3023 RMK A01 T10031141  RH  035%=      5-min Rain = 0
KAD1 140307Z 36013KT M00/M14 A3023 RMK A01 T10041141  RH  035%=      5-min Rain = 0
KAD1 140308Z 00011KT M00/M14 A3023 RMK A01 T10041140  RH  035%=      5-min Rain = 0
KAD1 140309Z 00012KT M00/M14 A3023 RMK A01 T10041140  RH  035%=      5-min Rain = 0
KAD1 140310Z 00012KT M01/M14 A3023 RMK A01 T10051141  RH  035%=      5-min Rain = 0
KAD1 140311Z 00011KT M01/M14 A3023 RMK A01 T10051140  RH  035%=      5-min Rain = 0
KAD1 140312Z 36013G18KT M01/M14 A3023 RMK A01 T10051141  RH  035%=      5-min Rain = 0
KAD1 140313Z 00012KT M00/M14 A3023 RMK A01 T10041140  RH  035%=      5-min Rain = 0
KAD1 140314Z 36010KT M00/M14 A3023 RMK A01 T10031140  RH  035%=      5-min Rain = 0
KAD1 140315Z 36012KT M00/M14 A3023 RMK A01 T10041141  RH  035%=      5-min Rain = 0
KAD1 140316Z 01012KT M00/M14 A3023 RMK A01 T10041140  RH  035%=      5-min Rain = 0
KAD1 140317Z 36012KT M01/M14 A3023 RMK A01 T10051141  RH  035%=      5-min Rain = 0
KAD1 140318Z 36012KT M01/M14 A3023 RMK A01 T10051141  RH  035%=      5-min Rain = 0
KAD1 140319Z 36013KT M01/M14 A3023 RMK A01 T10061141  RH  035%=      5-min Rain = 0
KAD1 140320Z 36013KT M01/M14 A3023 RMK A01 T10051140  RH  035%=      5-min Rain = 0
KAD1 140321Z 36014KT M01/M14 A3023 RMK A01 T10051140  RH  035%=      5-min Rain = 0
KAD1 140322Z 36012KT M00/M14 A3023 RMK A01 T10041140  RH  035%=      5-min Rain = 0
KAD1 140323Z 36013KT M00/M14 A3023 RMK A01 T10041141  RH  035%=      5-min Rain = 0
KAD1 140324Z 36012KT M00/M14 A3023 RMK A01 T10041141  RH  035%=      5-min Rain = 0
KAD1 140325Z 36011KT M01/M14 A3023 RMK A01 T10051141  RH  035%=      5-min Rain = 0
KAD1 140326Z 35010KT M01/M14 A3023 RMK A01 T10061141  RH  035%=      5-min Rain = 0
KAD1 140327Z 00011KT M01/M14 A3023 RMK A01 T10071141  RH  035%=      5-min Rain = 0
KAD1 140328Z 36012KT M01/M14 A3024 RMK A01 T10081141  RH  036%=      5-min Rain = 0
KAD1 140329Z 36011KT M01/M14 A3024 RMK A01 T10081141  RH  036%=      5-min Rain = 0
KAD1 140330Z 00011KT M01/M14 A3024 RMK A01 T10081140  RH  036%=      5-min Rain = 0
KAD1 140331Z 00011KT M01/M14 A3024 RMK A01 T10081140  RH  036%=      5-min Rain = 0
KAD1 140332Z 36011KT M01/M14 A3024 RMK A01 T10081140  RH  036%=      5-min Rain = 0
KAD1 140333Z 00011KT M01/M14 A3024 RMK A01 T10081140  RH  036%=      5-min Rain = 0
KAD1 140334Z 36011KT M01/M14 A3024 RMK A01 T10081140  RH  036%=      5-min Rain = 0
KAD1 140335Z 36012KT M01/M14 A3024 RMK A01 T10091140  RH  036%=      5-min Rain = 0
KAD1 140336Z 35010KT M01/M14 A3024 RMK A01 T10091141  RH  036%=      5-min Rain = 0
KAD1 140337Z 36010KT M01/M14 A3024 RMK A01 T10091141  RH  036%=      5-min Rain = 0
KAD1 140338Z 35009KT M01/M14 A3024 RMK A01 T10111141  RH  036%=      5-min Rain = 0
KAD1 140339Z 35009KT M01/M14 A3024 RMK A01 T10121142  RH  037%=      5-min Rain = 0
KAD1 140340Z 35012G17KT M01/M14 A3024 RMK A01 T10131141  RH  037%=      5-min Rain = 0
KAD1 140341Z 35010G15KT M01/M14 A3024 RMK A01 T10121140  RH  037%=      5-min Rain = 0
KAD1 140342Z 35010KT M01/M14 A3024 RMK A01 T10111140  RH  037%=      5-min Rain = 0
KAD1 140343Z 34010KT M01/M14 A3024 RMK A01 T10131142  RH  037%=      5-min Rain = 0
KAD1 140344Z 35011KT M01/M14 A3025 RMK A01 T10141142  RH  037%=      5-min Rain = 0
KAD1 140345Z 35011KT M01/M14 A3025 RMK A01 T10141141  RH  038%=      5-min Rain = 0
KAD1 140346Z 34010KT M01/M14 A3025 RMK A01 T10131140  RH  038%=      5-min Rain = 0
KAD1 140347Z 34009KT M01/M14 A3025 RMK A01 T10131140  RH  037%=      5-min Rain = 0
KAD1 140348Z 34009KT M02/M14 A3025 RMK A01 T10151141  RH  038%=      5-min Rain = 0
KAD1 140349Z 35009KT M02/M14 A3025 RMK A01 T10171142  RH  038%=      5-min Rain = 0
KAD1 140350Z 34009KT M02/M14 A3025 RMK A01 T10171141  RH  038%=      5-min Rain = 0
KAD1 140351Z 35010KT M02/M14 A3025 RMK A01 T10171141  RH  038%=      5-min Rain = 0
KAD1 140352Z 33009KT M02/M14 A3025 RMK A01 T10171140  RH  039%=      5-min Rain = 0
KAD1 140353Z 34009KT M02/M14 A3025 RMK A01 T10191141  RH  039%=      5-min Rain = 0
KAD1 140354Z 34008KT M02/M14 A3025 RMK A01 T10201141  RH  039%=      5-min Rain = 0
KAD1 140355Z 33009KT M02/M14 A3025 RMK A01 T10211141  RH  039%=      5-min Rain = 0
KAD1 140356Z 33009KT M02/M14 A3025 RMK A01 T10221141  RH  039%=      5-min Rain = 0
KAD1 140357Z 34009KT M02/M14 A3025 RMK A01 T10231141  RH  040%=      5-min Rain = 0
KAD1 140358Z 34010KT M02/M14 A3025 RMK A01 T10231141  RH  040%=      5-min Rain = 0
KAD1 140359Z 34009KT M02/M14 A3025 RMK A01 T10221140  RH  040%=      5-min Rain = 0
KAD1 140400Z 34009KT M02/M14 A3025 RMK A01 T10211140  RH  040%=      5-min Rain = 0
KAD1 140401Z 34010KT M02/M14 A3025 RMK A01 T10211140  RH  040%=      5-min Rain = 0
KAD1 140402Z 34009KT M02/M14 A3025 RMK A01 T10221140  RH  040%=      5-min Rain = 0
KAD1 140403Z 34010KT M02/M14 A3025 RMK A01 T10241141  RH  040%=      5-min Rain = 0
KAD1 140404Z 33009KT M02/M14 A3025 RMK A01 T10241141  RH  040%=      5-min Rain = 0
KAD1 140405Z 33010KT M02/M14 A3025 RMK A01 T10241141  RH  040%=      5-min Rain = 0
KAD1 140406Z 33009KT M02/M14 A3025 RMK A01 T10241141  RH  040%=      5-min Rain = 0
KAD1 140407Z 34009KT M03/M14 A3025 RMK A01 T10251141  RH  041%=      5-min Rain = 0
KAD1 140408Z 33009KT M03/M14 A3025 RMK A01 T10261141  RH  041%=      5-min Rain = 0
KAD1 140409Z 33010KT M03/M14 A3025 RMK A01 T10271141  RH  041%=      5-min Rain = 0
KAD1 140410Z 32010KT M03/M14 A3025 RMK A01 T10281141  RH  041%=      5-min Rain = 0
KAD1 140411Z 33010KT M03/M14 A3025 RMK A01 T10281140  RH  042%=      5-min Rain = 0
KAD1 140412Z 33010KT M03/M14 A3025 RMK A01 T10281140  RH  042%=      5-min Rain = 0
KAD1 140413Z 33010KT M03/M14 A3025 RMK A01 T10281140  RH  042%=      5-min Rain = 0
KAD1 140414Z 34009KT M03/M14 A3026 RMK A01 T10281140  RH  042%=      5-min Rain = 0
KAD1 140415Z 33009KT M03/M14 A3025 RMK A01 T10281141  RH  042%=      5-min Rain = 0
KAD1 140416Z 33011KT M03/M14 A3025 RMK A01 T10291141  RH  042%=      5-min Rain = 0
KAD1 140417Z 33009KT M03/M14 A3026 RMK A01 T10291141  RH  042%=      5-min Rain = 0
KAD1 140418Z 33009KT M03/M14 A3026 RMK A01 T10301141  RH  042%=      5-min Rain = 0
KAD1 140419Z 33009KT M03/M14 A3026 RMK A01 T10311141  RH  042%=      5-min Rain = 0
KAD1 140420Z 33010KT M03/M14 A3026 RMK A01 T10311141  RH  043%=      5-min Rain = 0
KAD1 140421Z 33010KT M03/M14 A3026 RMK A01 T10311141  RH  043%=      5-min Rain = 0
KAD1 140422Z 33009KT M03/M14 A3026 RMK A01 T10301140  RH  042%=      5-min Rain = 0
KAD1 140423Z 33008KT M03/M14 A3026 RMK A01 T10301141  RH  042%=      5-min Rain = 0
KAD1 140424Z 32009KT M03/M14 A3026 RMK A01 T10321142  RH  042%=      5-min Rain = 0
KAD1 140425Z 33009KT M03/M14 A3026 RMK A01 T10331142  RH  043%=      5-min Rain = 0
KAD1 140426Z 34008KT M03/M14 A3026 RMK A01 T10341141  RH  043%=      5-min Rain = 0
KAD1 140427Z 34007KT M03/M14 A3026 RMK A01 T10341141  RH  043%=      5-min Rain = 0
KAD1 140428Z 32008KT M04/M14 A3026 RMK A01 T10351142  RH  044%=      5-min Rain = 0
KAD1 140429Z 33010KT M04/M14 A3026 RMK A01 T10361141  RH  044%=      5-min Rain = 0
KAD1 140430Z 33009KT M04/M14 A3026 RMK A01 T10351141  RH  044%=      5-min Rain = 0
KAD1 140431Z 33008KT M04/M14 A3026 RMK A01 T10351141  RH  044%=      5-min Rain = 0
KAD1 140432Z 33008KT M04/M14 A3026 RMK A01 T10361141  RH  044%=      5-min Rain = 0
KAD1 140433Z 32009KT M04/M14 A3026 RMK A01 T10361141  RH  044%=      5-min Rain = 0
KAD1 140434Z 33008KT M04/M14 A3026 RMK A01 T10361141  RH  044%=      5-min Rain = 0
KAD1 140435Z 32008KT M04/M14 A3026 RMK A01 T10361141  RH  044%=      5-min Rain = 0
KAD1 140436Z 32008KT M04/M14 A3026 RMK A01 T10371141  RH  044%=      5-min Rain = 0
KAD1 140437Z 33008KT M04/M14 A3026 RMK A01 T10381142  RH  044%=      5-min Rain = 0
KAD1 140438Z 32008KT M04/M14 A3026 RMK A01 T10391142  RH  045%=      5-min Rain = 0
KAD1 140439Z 32007KT M04/M14 A3026 RMK A01 T10401142  RH  045%=      5-min Rain = 0
KAD1 140440Z 32008KT M04/M14 A3026 RMK A01 T10401141  RH  045%=      5-min Rain = 0
KAD1 140441Z 32008KT M04/M14 A3026 RMK A01 T10401141  RH  045%=      5-min Rain = 0
KAD1 140442Z 32008KT M04/M14 A3026 RMK A01 T10411141  RH  046%=      5-min Rain = 0
KAD1 140443Z 33008KT M04/M14 A3026 RMK A01 T10411141  RH  046%=      5-min Rain = 0
KAD1 140444Z 32008KT M04/M14 A3026 RMK A01 T10421141  RH  046%=      5-min Rain = 0
KAD1 140445Z 31007KT M04/M14 A3026 RMK A01 T10421141  RH  046%=      5-min Rain = 0
KAD1 140446Z 32007KT M04/M14 A3027 RMK A01 T10421141  RH  046%=      5-min Rain = 0
KAD1 140447Z 32007KT M04/M14 A3027 RMK A01 T10431141  RH  046%=      5-min Rain = 0
KAD1 140448Z 32007KT M04/M14 A3027 RMK A01 T10441142  RH  046%=      5-min Rain = 0
KAD1 140449Z 33007KT M04/M14 A3027 RMK A01 T10441141  RH  047%=      5-min Rain = 0
KAD1 140450Z 32006KT M04/M14 A3027 RMK A01 T10441141  RH  047%=      5-min Rain = 0
KAD1 140451Z 32008KT M05/M14 A3027 RMK A01 T10451141  RH  047%=      5-min Rain = 0
KAD1 140452Z 32008KT M05/M14 A3027 RMK A01 T10451141  RH  047%=      5-min Rain = 0
KAD1 140453Z 32007KT M05/M14 A3027 RMK A01 T10451141  RH  047%=      5-min Rain = 0
KAD1 140454Z 32007KT M04/M14 A3027 RMK A01 T10441141  RH  047%=      5-min Rain = 0
KAD1 140455Z 32008KT M04/M14 A3027 RMK A01 T10441141  RH  047%=      5-min Rain = 0
KAD1 140456Z 33007KT M04/M14 A3027 RMK A01 T10441141  RH  047%=      5-min Rain = 0
KAD1 140457Z 32007KT M05/M14 A3027 RMK A01 T10451141  RH  047%=      5-min Rain = 0
KAD1 140458Z 32008KT M05/M14 A3027 RMK A01 T10461142  RH  047%=      5-min Rain = 0
KAD1 140459Z 32008KT M05/M14 A3027 RMK A01 T10451141  RH  047%=      5-min Rain = 0
KAD1 140500Z 32007KT M05/M14 A3027 RMK A01 T10451141  RH  047%=      5-min Rain = 0
KAD1 140501Z 32007KT M05/M14 A3027 RMK A01 T10451141  RH  047%=      5-min Rain = 0
KAD1 140502Z 31007KT M05/M14 A3027 RMK A01 T10461142  RH  047%=      5-min Rain = 0
KAD1 140503Z 31007KT M05/M14 A3027 RMK A01 T10461141  RH  047%=      5-min Rain = 0
KAD1 140504Z 32007KT M05/M14 A3027 RMK A01 T10461141  RH  047%=      5-min Rain = 0
KAD1 140505Z 32007KT M05/M14 A3027 RMK A01 T10461141  RH  047%=      5-min Rain = 0
KAD1 140506Z 33007KT M05/M14 A3027 RMK A01 T10471141  RH  048%=      5-min Rain = 0
KAD1 140507Z 33007KT M05/M14 A3027 RMK A01 T10471142  RH  048%=      5-min Rain = 0
KAD1 140508Z 32007KT M05/M14 A3027 RMK A01 T10481141  RH  048%=      5-min Rain = 0
KAD1 140509Z 32007KT M05/M14 A3027 RMK A01 T10491142  RH  048%=      5-min Rain = 0
KAD1 140510Z 32007KT M05/M14 A3027 RMK A01 T10501142  RH  048%=      5-min Rain = 0
KAD1 140511Z 32008KT M05/M14 A3027 RMK A01 T10501142  RH  049%=      5-min Rain = 0
KAD1 140512Z 33008KT M05/M14 A3027 RMK A01 T10491141  RH  049%=      5-min Rain = 0
KAD1 140513Z 32008KT M05/M14 A3027 RMK A01 T10471140  RH  048%=      5-min Rain = 0
KAD1 140514Z 33008KT M05/M14 A3027 RMK A01 T10481141  RH  048%=      5-min Rain = 0
KAD1 140515Z 33008KT M05/M14 A3027 RMK A01 T10481141  RH  048%=      5-min Rain = 0
KAD1 140516Z 33008KT M05/M14 A3027 RMK A01 T10481142  RH  048%=      5-min Rain = 0
KAD1 140517Z 33008KT M05/M14 A3027 RMK A01 T10481141  RH  048%=      5-min Rain = 0
KAD1 140518Z 33008KT M05/M14 A3027 RMK A01 T10491142  RH  048%=      5-min Rain = 0
KAD1 140519Z 33008KT M05/M14 A3027 RMK A01 T10491142  RH  048%=      5-min Rain = 0
KAD1 140520Z 33009KT M05/M14 A3027 RMK A01 T10491142  RH  048%=      5-min Rain = 0
KAD1 140521Z 34009KT M05/M14 A3027 RMK A01 T10471141  RH  048%=      5-min Rain = 0
KAD1 140522Z 33009KT M05/M14 A3027 RMK A01 T10451140  RH  047%=      5-min Rain = 0
KAD1 140523Z 33010KT M04/M14 A3027 RMK A01 T10431140  RH  047%=      5-min Rain = 0
KAD1 140524Z 33010KT M04/M14 A3027 RMK A01 T10421141  RH  046%=      5-min Rain = 0
KAD1 140525Z 33009KT M04/M14 A3027 RMK A01 T10411141  RH  046%=      5-min Rain = 0
KAD1 140526Z 33009KT M04/M14 A3027 RMK A01 T10421142  RH  046%=      5-min Rain = 0
KAD1 140527Z 33009KT M04/M14 A3027 RMK A01 T10421142  RH  046%=      5-min Rain = 0
KAD1 140528Z 33010KT M04/M14 A3027 RMK A01 T10421142  RH  046%=      5-min Rain = 0
KAD1 140529Z 33009KT M04/M14 A3027 RMK A01 T10421142  RH  045%=      5-min Rain = 0
KAD1 140530Z 33009KT M04/M14 A3027 RMK A01 T10421142  RH  045%=      5-min Rain = 0
KAD1 140531Z 33010KT M04/M14 A3027 RMK A01 T10421142  RH  045%=      5-min Rain = 0
KAD1 140532Z 33009KT M04/M14 A3027 RMK A01 T10421142  RH  045%=      5-min Rain = 0
KAD1 140533Z 33009KT M04/M14 A3027 RMK A01 T10421143  RH  045%=      5-min Rain = 0
KAD1 140534Z 33008KT M04/M14 A3027 RMK A01 T10431143  RH  046%=      5-min Rain = 0
KAD1 140535Z 33009KT M04/M14 A3027 RMK A01 T10441143  RH  046%=      5-min Rain = 0
KAD1 140536Z 33010KT M04/M14 A3027 RMK A01 T10441143  RH  046%=      5-min Rain = 0
KAD1 140537Z 33010KT M04/M14 A3028 RMK A01 T10441143  RH  046%=      5-min Rain = 0
KAD1 140538Z 33010KT M04/M14 A3028 RMK A01 T10431143  RH  046%=      5-min Rain = 0
KAD1 140539Z 33010KT M04/M14 A3028 RMK A01 T10431143  RH  046%=      5-min Rain = 0
KAD1 140540Z 33009KT M04/M14 A3028 RMK A01 T10431143  RH  046%=      5-min Rain = 0
KAD1 140541Z 33009KT M04/M14 A3028 RMK A01 T10431143  RH  046%=      5-min Rain = 0
KAD1 140542Z 33009KT M04/M14 A3028 RMK A01 T10431143  RH  046%=      5-min Rain = 0
KAD1 140543Z 33009KT M04/M14 A3028 RMK A01 T10431143  RH  046%=      5-min Rain = 0
KAD1 140544Z 33008KT M04/M14 A3028 RMK A01 T10441143  RH  046%=      5-min Rain = 0
KAD1 140545Z 33009KT M05/M14 A3028 RMK A01 T10451143  RH  046%=      5-min Rain = 0
KAD1 140546Z 33009KT M05/M14 A3028 RMK A01 T10451143  RH  046%=      5-min Rain = 0
KAD1 140547Z 33009KT M05/M14 A3028 RMK A01 T10451143  RH  046%=      5-min Rain = 0
KAD1 140548Z 33008KT M05/M14 A3028 RMK A01 T10451143  RH  046%=      5-min Rain = 0
KAD1 140549Z 33009KT M04/M14 A3028 RMK A01 T10441143  RH  046%=      5-min Rain = 0
KAD1 140550Z 33010KT M04/M14 A3028 RMK A01 T10441143  RH  046%=      5-min Rain = 0
KAD1 140551Z 33009KT M04/M14 A3028 RMK A01 T10441143  RH  046%=      5-min Rain = 0
KAD1 140552Z 33010KT M05/M14 A3028 RMK A01 T10451143  RH  046%=      5-min Rain = 0
KAD1 140553Z 33010KT M05/M14 A3028 RMK A01 T10451143  RH  046%=      5-min Rain = 0
KAD1 140554Z 33009KT M05/M14 A3028 RMK A01 T10461143  RH  046%=      5-min Rain = 0
KAD1 140555Z 32008KT M05/M14 A3028 RMK A01 T10461144  RH  047%=      5-min Rain = 0
KAD1 140556Z 33009KT M05/M14 A3028 RMK A01 T10471144  RH  047%=      5-min Rain = 0
KAD1 140557Z 32009KT M05/M14 A3028 RMK A01 T10481144  RH  047%=      5-min Rain = 0
KAD1 140558Z 32010KT M05/M14 A3028 RMK A01 T10491144  RH  047%=      5-min Rain = 0
KAD1 140559Z 32009KT M05/M14 A3028 RMK A01 T10491144  RH  048%=      5-min Rain = 0

Page generated in 0.1439 seconds.